<?xml version="1.0" encoding="UTF-8" standalone="no" ?>
<gpx xmlns="http://www.topografix.com/GPX/1/1" xmlns:xsi="http://www.w3.org/2001/XMLSchema-instance" xsi:schemaLocation="http://www.topografix.com/GPX/1/1 http://www.topografix.com/GPX/1/1/gpx.xsd" version="1.1" creator="VisuGPX - https://www.visugpx.com">
  <metadata>
    <name>Circuit VTT technique Foret Evreux V2 rallongé</name>
    <desc><![CDATA[Version 2 rallongé par un passage par Morsent]]></desc>
  </metadata>
  <wpt lat="49.00243" lon="1.08928">
    <ele>120.77</ele>
    <name><![CDATA[001]]></name>
  </wpt>
  <wpt lat="38.85555" lon="-94.79902">
    <ele>3.01</ele>
    <name><![CDATA[GARMIN]]></name>
  </wpt>
  <wpt lat="50.98288" lon="-1.4639">
    <ele>3.01</ele>
    <name><![CDATA[GRMEUR]]></name>
  </wpt>
  <wpt lat="25.06178" lon="121.64027">
    <ele>3.01</ele>
    <name><![CDATA[GRMTWN]]></name>
  </wpt>
  <wpt lat="43.57746" lon="1.45163">
    <ele>97.22</ele>
    <name><![CDATA[MAP]]></name>
  </wpt>
  <trk>
    <name><![CDATA[ACTIVE LOG: 16 AVR 2011 14:48]]></name>
    <trkseg>
      <trkpt lat="49.00252" lon="1.08918">
        <ele>53.01</ele>
        <time>2011-04-16T12:48:56Z</time>
      </trkpt>
      <trkpt lat="49.00257" lon="1.08908">
        <ele>55.89</ele>
        <time>2011-04-16T12:49:15Z</time>
      </trkpt>
      <trkpt lat="49.00257" lon="1.08908">
        <ele>55.89</ele>
        <time>2011-04-16T12:49:16Z</time>
      </trkpt>
      <trkpt lat="49.00255" lon="1.08915">
        <ele>53.97</ele>
        <time>2011-04-16T12:49:40Z</time>
      </trkpt>
      <trkpt lat="49.00255" lon="1.08916">
        <ele>57.82</ele>
        <time>2011-04-16T12:49:51Z</time>
      </trkpt>
      <trkpt lat="49.00254" lon="1.08919">
        <ele>56.86</ele>
        <time>2011-04-16T12:50:20Z</time>
      </trkpt>
      <trkpt lat="49.00254" lon="1.08921">
        <ele>57.82</ele>
        <time>2011-04-16T12:50:22Z</time>
      </trkpt>
      <trkpt lat="49.00253" lon="1.08923">
        <ele>55.89</ele>
        <time>2011-04-16T12:50:24Z</time>
      </trkpt>
      <trkpt lat="49.00252" lon="1.08925">
        <ele>58.3</ele>
        <time>2011-04-16T12:50:30Z</time>
      </trkpt>
      <trkpt lat="49.00248" lon="1.0894">
        <ele>58.78</ele>
        <time>2011-04-16T12:50:37Z</time>
      </trkpt>
      <trkpt lat="49.00247" lon="1.08942">
        <ele>58.3</ele>
        <time>2011-04-16T12:50:38Z</time>
      </trkpt>
      <trkpt lat="49.00243" lon="1.08944">
        <ele>56.86</ele>
        <time>2011-04-16T12:50:40Z</time>
      </trkpt>
      <trkpt lat="49.00212" lon="1.08947">
        <ele>58.78</ele>
        <time>2011-04-16T12:50:54Z</time>
      </trkpt>
      <trkpt lat="49.00208" lon="1.08944">
        <ele>60.22</ele>
        <time>2011-04-16T12:50:58Z</time>
      </trkpt>
      <trkpt lat="49.00209" lon="1.08941">
        <ele>57.34</ele>
        <time>2011-04-16T12:51:00Z</time>
      </trkpt>
      <trkpt lat="49.00211" lon="1.08951">
        <ele>61.18</ele>
        <time>2011-04-16T12:51:07Z</time>
      </trkpt>
      <trkpt lat="49.00209" lon="1.0896">
        <ele>60.22</ele>
        <time>2011-04-16T12:51:10Z</time>
      </trkpt>
      <trkpt lat="49.0021" lon="1.08984">
        <ele>59.26</ele>
        <time>2011-04-16T12:51:16Z</time>
      </trkpt>
      <trkpt lat="49.00227" lon="1.09037">
        <ele>55.89</ele>
        <time>2011-04-16T12:51:28Z</time>
      </trkpt>
      <trkpt lat="49.00236" lon="1.09055">
        <ele>58.78</ele>
        <time>2011-04-16T12:51:32Z</time>
      </trkpt>
      <trkpt lat="49.00254" lon="1.09082">
        <ele>57.82</ele>
        <time>2011-04-16T12:51:39Z</time>
      </trkpt>
      <trkpt lat="49.00254" lon="1.091">
        <ele>58.3</ele>
        <time>2011-04-16T12:51:43Z</time>
      </trkpt>
      <trkpt lat="49.00227" lon="1.09131">
        <ele>60.22</ele>
        <time>2011-04-16T12:51:53Z</time>
      </trkpt>
      <trkpt lat="49.00156" lon="1.09169">
        <ele>62.62</ele>
        <time>2011-04-16T12:52:13Z</time>
      </trkpt>
      <trkpt lat="49.00135" lon="1.0923">
        <ele>61.18</ele>
        <time>2011-04-16T12:52:26Z</time>
      </trkpt>
      <trkpt lat="49.00136" lon="1.09236">
        <ele>60.7</ele>
        <time>2011-04-16T12:52:27Z</time>
      </trkpt>
      <trkpt lat="49.00145" lon="1.09264">
        <ele>61.66</ele>
        <time>2011-04-16T12:52:31Z</time>
      </trkpt>
      <trkpt lat="49.00147" lon="1.09271">
        <ele>62.14</ele>
        <time>2011-04-16T12:52:32Z</time>
      </trkpt>
      <trkpt lat="49.0016" lon="1.09314">
        <ele>62.14</ele>
        <time>2011-04-16T12:52:39Z</time>
      </trkpt>
      <trkpt lat="49.00162" lon="1.09342">
        <ele>59.74</ele>
        <time>2011-04-16T12:52:44Z</time>
      </trkpt>
      <trkpt lat="49.00162" lon="1.09378">
        <ele>53.97</ele>
        <time>2011-04-16T12:52:49Z</time>
      </trkpt>
      <trkpt lat="49.00163" lon="1.094">
        <ele>52.05</ele>
        <time>2011-04-16T12:52:51Z</time>
      </trkpt>
      <trkpt lat="49.00167" lon="1.09443">
        <ele>47.24</ele>
        <time>2011-04-16T12:52:55Z</time>
      </trkpt>
      <trkpt lat="49.00167" lon="1.09472">
        <ele>43.4</ele>
        <time>2011-04-16T12:52:58Z</time>
      </trkpt>
      <trkpt lat="49.00167" lon="1.09491">
        <ele>40.99</ele>
        <time>2011-04-16T12:53:00Z</time>
      </trkpt>
      <trkpt lat="49.00168" lon="1.095">
        <ele>40.03</ele>
        <time>2011-04-16T12:53:01Z</time>
      </trkpt>
      <trkpt lat="49.00169" lon="1.09519">
        <ele>38.59</ele>
        <time>2011-04-16T12:53:03Z</time>
      </trkpt>
      <trkpt lat="49.00165" lon="1.09551">
        <ele>34.74</ele>
        <time>2011-04-16T12:53:07Z</time>
      </trkpt>
      <trkpt lat="49.00163" lon="1.09577">
        <ele>30.42</ele>
        <time>2011-04-16T12:53:10Z</time>
      </trkpt>
      <trkpt lat="49.00162" lon="1.09585">
        <ele>29.46</ele>
        <time>2011-04-16T12:53:11Z</time>
      </trkpt>
      <trkpt lat="49.00161" lon="1.096">
        <ele>28.5</ele>
        <time>2011-04-16T12:53:13Z</time>
      </trkpt>
      <trkpt lat="49.00161" lon="1.09621">
        <ele>24.65</ele>
        <time>2011-04-16T12:53:16Z</time>
      </trkpt>
      <trkpt lat="49.00161" lon="1.09641">
        <ele>20.81</ele>
        <time>2011-04-16T12:53:20Z</time>
      </trkpt>
      <trkpt lat="49.00167" lon="1.0967">
        <ele>18.4</ele>
        <time>2011-04-16T12:53:24Z</time>
      </trkpt>
      <trkpt lat="49.00171" lon="1.09687">
        <ele>16.96</ele>
        <time>2011-04-16T12:53:26Z</time>
      </trkpt>
      <trkpt lat="49.00177" lon="1.09723">
        <ele>14.56</ele>
        <time>2011-04-16T12:53:35Z</time>
      </trkpt>
      <trkpt lat="49.00177" lon="1.09726">
        <ele>15.52</ele>
        <time>2011-04-16T12:53:36Z</time>
      </trkpt>
      <trkpt lat="49.00193" lon="1.09758">
        <ele>14.56</ele>
        <time>2011-04-16T12:53:42Z</time>
      </trkpt>
      <trkpt lat="49.00215" lon="1.09796">
        <ele>15.04</ele>
        <time>2011-04-16T12:53:48Z</time>
      </trkpt>
      <trkpt lat="49.00244" lon="1.09843">
        <ele>15.52</ele>
        <time>2011-04-16T12:53:55Z</time>
      </trkpt>
      <trkpt lat="49.00252" lon="1.09866">
        <ele>14.56</ele>
        <time>2011-04-16T12:53:58Z</time>
      </trkpt>
      <trkpt lat="49.00231" lon="1.09903">
        <ele>14.08</ele>
        <time>2011-04-16T12:54:03Z</time>
      </trkpt>
      <trkpt lat="49.00209" lon="1.09922">
        <ele>13.12</ele>
        <time>2011-04-16T12:54:07Z</time>
      </trkpt>
      <trkpt lat="49.00204" lon="1.09926">
        <ele>16.96</ele>
        <time>2011-04-16T12:54:08Z</time>
      </trkpt>
      <trkpt lat="49.00199" lon="1.09931">
        <ele>13.12</ele>
        <time>2011-04-16T12:54:09Z</time>
      </trkpt>
      <trkpt lat="49.00179" lon="1.0995">
        <ele>16.96</ele>
        <time>2011-04-16T12:54:13Z</time>
      </trkpt>
      <trkpt lat="49.00174" lon="1.09955">
        <ele>13.6</ele>
        <time>2011-04-16T12:54:14Z</time>
      </trkpt>
      <trkpt lat="49.00169" lon="1.09959">
        <ele>9.75</ele>
        <time>2011-04-16T12:54:15Z</time>
      </trkpt>
      <trkpt lat="49.00164" lon="1.09964">
        <ele>13.6</ele>
        <time>2011-04-16T12:54:16Z</time>
      </trkpt>
      <trkpt lat="49.00112" lon="1.10012">
        <ele>18.4</ele>
        <time>2011-04-16T12:54:27Z</time>
      </trkpt>
      <trkpt lat="49.00107" lon="1.10016">
        <ele>14.08</ele>
        <time>2011-04-16T12:54:28Z</time>
      </trkpt>
      <trkpt lat="49.00089" lon="1.10033">
        <ele>14.56</ele>
        <time>2011-04-16T12:54:32Z</time>
      </trkpt>
      <trkpt lat="49.00051" lon="1.10052">
        <ele>13.12</ele>
        <time>2011-04-16T12:54:39Z</time>
      </trkpt>
      <trkpt lat="49.00046" lon="1.10054">
        <ele>16.96</ele>
        <time>2011-04-16T12:54:40Z</time>
      </trkpt>
      <trkpt lat="49.0004" lon="1.10056">
        <ele>15.52</ele>
        <time>2011-04-16T12:54:41Z</time>
      </trkpt>
      <trkpt lat="49.0003" lon="1.1006">
        <ele>12.63</ele>
        <time>2011-04-16T12:54:43Z</time>
      </trkpt>
      <trkpt lat="49.00024" lon="1.10062">
        <ele>17.44</ele>
        <time>2011-04-16T12:54:44Z</time>
      </trkpt>
      <trkpt lat="49.00019" lon="1.10064">
        <ele>16.48</ele>
        <time>2011-04-16T12:54:45Z</time>
      </trkpt>
      <trkpt lat="48.99985" lon="1.10087">
        <ele>13.12</ele>
        <time>2011-04-16T12:54:52Z</time>
      </trkpt>
      <trkpt lat="48.9998" lon="1.1009">
        <ele>18.4</ele>
        <time>2011-04-16T12:54:53Z</time>
      </trkpt>
      <trkpt lat="48.99976" lon="1.10093">
        <ele>14.56</ele>
        <time>2011-04-16T12:54:54Z</time>
      </trkpt>
      <trkpt lat="48.99971" lon="1.10096">
        <ele>15.52</ele>
        <time>2011-04-16T12:54:55Z</time>
      </trkpt>
      <trkpt lat="48.99941" lon="1.10098">
        <ele>14.08</ele>
        <time>2011-04-16T12:55:02Z</time>
      </trkpt>
      <trkpt lat="48.99938" lon="1.10079">
        <ele>16.48</ele>
        <time>2011-04-16T12:55:04Z</time>
      </trkpt>
      <trkpt lat="48.99934" lon="1.1006">
        <ele>13.12</ele>
        <time>2011-04-16T12:55:06Z</time>
      </trkpt>
      <trkpt lat="48.99926" lon="1.10032">
        <ele>16.48</ele>
        <time>2011-04-16T12:55:09Z</time>
      </trkpt>
      <trkpt lat="48.99911" lon="1.09985">
        <ele>10.71</ele>
        <time>2011-04-16T12:55:14Z</time>
      </trkpt>
      <trkpt lat="48.99908" lon="1.09976">
        <ele>16</ele>
        <time>2011-04-16T12:55:15Z</time>
      </trkpt>
      <trkpt lat="48.99905" lon="1.09966">
        <ele>15.04</ele>
        <time>2011-04-16T12:55:16Z</time>
      </trkpt>
      <trkpt lat="48.99892" lon="1.0993">
        <ele>18.88</ele>
        <time>2011-04-16T12:55:20Z</time>
      </trkpt>
      <trkpt lat="48.99888" lon="1.0992">
        <ele>18.4</ele>
        <time>2011-04-16T12:55:21Z</time>
      </trkpt>
      <trkpt lat="48.99882" lon="1.09901">
        <ele>14.08</ele>
        <time>2011-04-16T12:55:23Z</time>
      </trkpt>
      <trkpt lat="48.99875" lon="1.09882">
        <ele>17.44</ele>
        <time>2011-04-16T12:55:25Z</time>
      </trkpt>
      <trkpt lat="48.99872" lon="1.09873">
        <ele>15.52</ele>
        <time>2011-04-16T12:55:26Z</time>
      </trkpt>
      <trkpt lat="48.99851" lon="1.09818">
        <ele>16.96</ele>
        <time>2011-04-16T12:55:32Z</time>
      </trkpt>
      <trkpt lat="48.99838" lon="1.0978">
        <ele>17.44</ele>
        <time>2011-04-16T12:55:36Z</time>
      </trkpt>
      <trkpt lat="48.99833" lon="1.09749">
        <ele>15.52</ele>
        <time>2011-04-16T12:55:39Z</time>
      </trkpt>
      <trkpt lat="48.9983" lon="1.09716">
        <ele>11.19</ele>
        <time>2011-04-16T12:55:42Z</time>
      </trkpt>
      <trkpt lat="48.99827" lon="1.09695">
        <ele>17.44</ele>
        <time>2011-04-16T12:55:44Z</time>
      </trkpt>
      <trkpt lat="48.99826" lon="1.09684">
        <ele>16</ele>
        <time>2011-04-16T12:55:45Z</time>
      </trkpt>
      <trkpt lat="48.99796" lon="1.095">
        <ele>15.04</ele>
        <time>2011-04-16T12:56:02Z</time>
      </trkpt>
      <trkpt lat="48.99785" lon="1.09471">
        <ele>19.36</ele>
        <time>2011-04-16T12:56:05Z</time>
      </trkpt>
      <trkpt lat="48.99774" lon="1.09443">
        <ele>17.44</ele>
        <time>2011-04-16T12:56:08Z</time>
      </trkpt>
      <trkpt lat="48.99751" lon="1.09367">
        <ele>19.36</ele>
        <time>2011-04-16T12:56:16Z</time>
      </trkpt>
      <trkpt lat="48.99739" lon="1.09329">
        <ele>19.84</ele>
        <time>2011-04-16T12:56:20Z</time>
      </trkpt>
      <trkpt lat="48.99721" lon="1.09262">
        <ele>16</ele>
        <time>2011-04-16T12:56:27Z</time>
      </trkpt>
      <trkpt lat="48.99719" lon="1.09252">
        <ele>16.96</ele>
        <time>2011-04-16T12:56:28Z</time>
      </trkpt>
      <trkpt lat="48.99716" lon="1.09233">
        <ele>20.81</ele>
        <time>2011-04-16T12:56:30Z</time>
      </trkpt>
      <trkpt lat="48.99713" lon="1.09224">
        <ele>18.4</ele>
        <time>2011-04-16T12:56:31Z</time>
      </trkpt>
      <trkpt lat="48.99703" lon="1.09187">
        <ele>21.77</ele>
        <time>2011-04-16T12:56:35Z</time>
      </trkpt>
      <trkpt lat="48.99701" lon="1.09178">
        <ele>16.48</ele>
        <time>2011-04-16T12:56:36Z</time>
      </trkpt>
      <trkpt lat="48.99693" lon="1.09151">
        <ele>22.73</ele>
        <time>2011-04-16T12:56:39Z</time>
      </trkpt>
      <trkpt lat="48.99676" lon="1.09102">
        <ele>18.88</ele>
        <time>2011-04-16T12:56:45Z</time>
      </trkpt>
      <trkpt lat="48.9966" lon="1.09011">
        <ele>22.25</ele>
        <time>2011-04-16T12:56:56Z</time>
      </trkpt>
      <trkpt lat="48.99651" lon="1.08979">
        <ele>19.84</ele>
        <time>2011-04-16T12:57:00Z</time>
      </trkpt>
      <trkpt lat="48.99645" lon="1.08964">
        <ele>18.4</ele>
        <time>2011-04-16T12:57:02Z</time>
      </trkpt>
      <trkpt lat="48.99623" lon="1.08893">
        <ele>22.25</ele>
        <time>2011-04-16T12:57:11Z</time>
      </trkpt>
      <trkpt lat="48.9962" lon="1.08886">
        <ele>21.29</ele>
        <time>2011-04-16T12:57:12Z</time>
      </trkpt>
      <trkpt lat="48.9961" lon="1.08855">
        <ele>19.36</ele>
        <time>2011-04-16T12:57:16Z</time>
      </trkpt>
      <trkpt lat="48.99583" lon="1.08768">
        <ele>24.17</ele>
        <time>2011-04-16T12:57:27Z</time>
      </trkpt>
      <trkpt lat="48.99581" lon="1.0876">
        <ele>18.88</ele>
        <time>2011-04-16T12:57:28Z</time>
      </trkpt>
      <trkpt lat="48.99576" lon="1.08745">
        <ele>22.73</ele>
        <time>2011-04-16T12:57:30Z</time>
      </trkpt>
      <trkpt lat="48.99574" lon="1.08737">
        <ele>16.96</ele>
        <time>2011-04-16T12:57:31Z</time>
      </trkpt>
      <trkpt lat="48.99572" lon="1.08729">
        <ele>21.29</ele>
        <time>2011-04-16T12:57:32Z</time>
      </trkpt>
      <trkpt lat="48.99554" lon="1.08661">
        <ele>16.96</ele>
        <time>2011-04-16T12:57:41Z</time>
      </trkpt>
      <trkpt lat="48.99552" lon="1.08653">
        <ele>21.29</ele>
        <time>2011-04-16T12:57:42Z</time>
      </trkpt>
      <trkpt lat="48.99548" lon="1.08638">
        <ele>24.65</ele>
        <time>2011-04-16T12:57:44Z</time>
      </trkpt>
      <trkpt lat="48.99546" lon="1.0863">
        <ele>18.4</ele>
        <time>2011-04-16T12:57:45Z</time>
      </trkpt>
      <trkpt lat="48.99545" lon="1.08622">
        <ele>22.73</ele>
        <time>2011-04-16T12:57:46Z</time>
      </trkpt>
      <trkpt lat="48.99534" lon="1.0856">
        <ele>22.73</ele>
        <time>2011-04-16T12:57:54Z</time>
      </trkpt>
      <trkpt lat="48.99531" lon="1.08545">
        <ele>21.29</ele>
        <time>2011-04-16T12:57:56Z</time>
      </trkpt>
      <trkpt lat="48.9953" lon="1.08537">
        <ele>26.09</ele>
        <time>2011-04-16T12:57:57Z</time>
      </trkpt>
      <trkpt lat="48.99529" lon="1.0853">
        <ele>24.65</ele>
        <time>2011-04-16T12:57:58Z</time>
      </trkpt>
      <trkpt lat="48.99524" lon="1.08492">
        <ele>19.84</ele>
        <time>2011-04-16T12:58:03Z</time>
      </trkpt>
      <trkpt lat="48.99523" lon="1.08485">
        <ele>22.25</ele>
        <time>2011-04-16T12:58:04Z</time>
      </trkpt>
      <trkpt lat="48.99522" lon="1.08478">
        <ele>18.88</ele>
        <time>2011-04-16T12:58:05Z</time>
      </trkpt>
      <trkpt lat="48.99521" lon="1.0847">
        <ele>22.73</ele>
        <time>2011-04-16T12:58:06Z</time>
      </trkpt>
      <trkpt lat="48.99516" lon="1.08442">
        <ele>26.57</ele>
        <time>2011-04-16T12:58:10Z</time>
      </trkpt>
      <trkpt lat="48.99515" lon="1.08434">
        <ele>21.77</ele>
        <time>2011-04-16T12:58:11Z</time>
      </trkpt>
      <trkpt lat="48.99511" lon="1.08406">
        <ele>25.13</ele>
        <time>2011-04-16T12:58:15Z</time>
      </trkpt>
      <trkpt lat="48.99507" lon="1.08376">
        <ele>21.29</ele>
        <time>2011-04-16T12:58:19Z</time>
      </trkpt>
      <trkpt lat="48.99506" lon="1.08368">
        <ele>21.77</ele>
        <time>2011-04-16T12:58:20Z</time>
      </trkpt>
      <trkpt lat="48.99505" lon="1.0836">
        <ele>25.61</ele>
        <time>2011-04-16T12:58:21Z</time>
      </trkpt>
      <trkpt lat="48.99502" lon="1.08345">
        <ele>27.53</ele>
        <time>2011-04-16T12:58:23Z</time>
      </trkpt>
      <trkpt lat="48.99501" lon="1.08338">
        <ele>24.17</ele>
        <time>2011-04-16T12:58:24Z</time>
      </trkpt>
      <trkpt lat="48.99499" lon="1.0833">
        <ele>26.09</ele>
        <time>2011-04-16T12:58:25Z</time>
      </trkpt>
      <trkpt lat="48.99498" lon="1.08323">
        <ele>21.77</ele>
        <time>2011-04-16T12:58:26Z</time>
      </trkpt>
      <trkpt lat="48.99496" lon="1.08315">
        <ele>21.77</ele>
        <time>2011-04-16T12:58:27Z</time>
      </trkpt>
      <trkpt lat="48.99493" lon="1.083">
        <ele>24.65</ele>
        <time>2011-04-16T12:58:29Z</time>
      </trkpt>
      <trkpt lat="48.99491" lon="1.08292">
        <ele>19.36</ele>
        <time>2011-04-16T12:58:30Z</time>
      </trkpt>
      <trkpt lat="48.9949" lon="1.08285">
        <ele>21.77</ele>
        <time>2011-04-16T12:58:31Z</time>
      </trkpt>
      <trkpt lat="48.99486" lon="1.08269">
        <ele>25.13</ele>
        <time>2011-04-16T12:58:33Z</time>
      </trkpt>
      <trkpt lat="48.99482" lon="1.08253">
        <ele>20.32</ele>
        <time>2011-04-16T12:58:35Z</time>
      </trkpt>
      <trkpt lat="48.9948" lon="1.08245">
        <ele>23.21</ele>
        <time>2011-04-16T12:58:36Z</time>
      </trkpt>
      <trkpt lat="48.99478" lon="1.08237">
        <ele>27.05</ele>
        <time>2011-04-16T12:58:37Z</time>
      </trkpt>
      <trkpt lat="48.99476" lon="1.08229">
        <ele>21.77</ele>
        <time>2011-04-16T12:58:38Z</time>
      </trkpt>
      <trkpt lat="48.99474" lon="1.08221">
        <ele>16.48</ele>
        <time>2011-04-16T12:58:39Z</time>
      </trkpt>
      <trkpt lat="48.99473" lon="1.08213">
        <ele>22.73</ele>
        <time>2011-04-16T12:58:40Z</time>
      </trkpt>
      <trkpt lat="48.99469" lon="1.08197">
        <ele>27.05</ele>
        <time>2011-04-16T12:58:42Z</time>
      </trkpt>
      <trkpt lat="48.99468" lon="1.08188">
        <ele>23.21</ele>
        <time>2011-04-16T12:58:43Z</time>
      </trkpt>
      <trkpt lat="48.99463" lon="1.08163">
        <ele>19.36</ele>
        <time>2011-04-16T12:58:46Z</time>
      </trkpt>
      <trkpt lat="48.99462" lon="1.08154">
        <ele>23.69</ele>
        <time>2011-04-16T12:58:47Z</time>
      </trkpt>
      <trkpt lat="48.99456" lon="1.08114">
        <ele>28.98</ele>
        <time>2011-04-16T12:58:52Z</time>
      </trkpt>
      <trkpt lat="48.99455" lon="1.08105">
        <ele>21.77</ele>
        <time>2011-04-16T12:58:53Z</time>
      </trkpt>
      <trkpt lat="48.99454" lon="1.08097">
        <ele>25.61</ele>
        <time>2011-04-16T12:58:54Z</time>
      </trkpt>
      <trkpt lat="48.99451" lon="1.08072">
        <ele>22.25</ele>
        <time>2011-04-16T12:58:57Z</time>
      </trkpt>
      <trkpt lat="48.9945" lon="1.08063">
        <ele>28.98</ele>
        <time>2011-04-16T12:58:58Z</time>
      </trkpt>
      <trkpt lat="48.9945" lon="1.08054">
        <ele>23.69</ele>
        <time>2011-04-16T12:58:59Z</time>
      </trkpt>
      <trkpt lat="48.9945" lon="1.07999">
        <ele>28.5</ele>
        <time>2011-04-16T12:59:05Z</time>
      </trkpt>
      <trkpt lat="48.9945" lon="1.0799">
        <ele>22.25</ele>
        <time>2011-04-16T12:59:06Z</time>
      </trkpt>
      <trkpt lat="48.9945" lon="1.07981">
        <ele>23.21</ele>
        <time>2011-04-16T12:59:07Z</time>
      </trkpt>
      <trkpt lat="48.9945" lon="1.07953">
        <ele>28.02</ele>
        <time>2011-04-16T12:59:10Z</time>
      </trkpt>
      <trkpt lat="48.9945" lon="1.07944">
        <ele>20.81</ele>
        <time>2011-04-16T12:59:11Z</time>
      </trkpt>
      <trkpt lat="48.9945" lon="1.07935">
        <ele>21.29</ele>
        <time>2011-04-16T12:59:12Z</time>
      </trkpt>
      <trkpt lat="48.9945" lon="1.07925">
        <ele>27.05</ele>
        <time>2011-04-16T12:59:13Z</time>
      </trkpt>
      <trkpt lat="48.9945" lon="1.07916">
        <ele>24.17</ele>
        <time>2011-04-16T12:59:14Z</time>
      </trkpt>
      <trkpt lat="48.9945" lon="1.07763">
        <ele>28.5</ele>
        <time>2011-04-16T12:59:31Z</time>
      </trkpt>
      <trkpt lat="48.99451" lon="1.0772">
        <ele>23.21</ele>
        <time>2011-04-16T12:59:36Z</time>
      </trkpt>
      <trkpt lat="48.99451" lon="1.07711">
        <ele>24.65</ele>
        <time>2011-04-16T12:59:37Z</time>
      </trkpt>
      <trkpt lat="48.99451" lon="1.07702">
        <ele>28.5</ele>
        <time>2011-04-16T12:59:38Z</time>
      </trkpt>
      <trkpt lat="48.9945" lon="1.07691">
        <ele>23.21</ele>
        <time>2011-04-16T12:59:39Z</time>
      </trkpt>
      <trkpt lat="48.9945" lon="1.0768">
        <ele>26.57</ele>
        <time>2011-04-16T12:59:40Z</time>
      </trkpt>
      <trkpt lat="48.99451" lon="1.0762">
        <ele>24.17</ele>
        <time>2011-04-16T12:59:45Z</time>
      </trkpt>
      <trkpt lat="48.99451" lon="1.07609">
        <ele>28.98</ele>
        <time>2011-04-16T12:59:46Z</time>
      </trkpt>
      <trkpt lat="48.99451" lon="1.07597">
        <ele>27.05</ele>
        <time>2011-04-16T12:59:47Z</time>
      </trkpt>
      <trkpt lat="48.99451" lon="1.0756">
        <ele>23.69</ele>
        <time>2011-04-16T12:59:50Z</time>
      </trkpt>
      <trkpt lat="48.99451" lon="1.07535">
        <ele>26.57</ele>
        <time>2011-04-16T12:59:52Z</time>
      </trkpt>
      <trkpt lat="48.99451" lon="1.0737">
        <ele>22.25</ele>
        <time>2011-04-16T13:00:06Z</time>
      </trkpt>
      <trkpt lat="48.99451" lon="1.0736">
        <ele>29.46</ele>
        <time>2011-04-16T13:00:07Z</time>
      </trkpt>
      <trkpt lat="48.99452" lon="1.07349">
        <ele>21.29</ele>
        <time>2011-04-16T13:00:08Z</time>
      </trkpt>
      <trkpt lat="48.99451" lon="1.07338">
        <ele>27.53</ele>
        <time>2011-04-16T13:00:09Z</time>
      </trkpt>
      <trkpt lat="48.99451" lon="1.07328">
        <ele>24.17</ele>
        <time>2011-04-16T13:00:10Z</time>
      </trkpt>
      <trkpt lat="48.99451" lon="1.07308">
        <ele>27.05</ele>
        <time>2011-04-16T13:00:12Z</time>
      </trkpt>
      <trkpt lat="48.99451" lon="1.07267">
        <ele>28.5</ele>
        <time>2011-04-16T13:00:16Z</time>
      </trkpt>
      <trkpt lat="48.99451" lon="1.07246">
        <ele>25.13</ele>
        <time>2011-04-16T13:00:18Z</time>
      </trkpt>
      <trkpt lat="48.99452" lon="1.07176">
        <ele>24.65</ele>
        <time>2011-04-16T13:00:25Z</time>
      </trkpt>
      <trkpt lat="48.99452" lon="1.07155">
        <ele>25.13</ele>
        <time>2011-04-16T13:00:27Z</time>
      </trkpt>
      <trkpt lat="48.99452" lon="1.07145">
        <ele>28.5</ele>
        <time>2011-04-16T13:00:28Z</time>
      </trkpt>
      <trkpt lat="48.99452" lon="1.07134">
        <ele>28.02</ele>
        <time>2011-04-16T13:00:29Z</time>
      </trkpt>
      <trkpt lat="48.99451" lon="1.07104">
        <ele>25.61</ele>
        <time>2011-04-16T13:00:32Z</time>
      </trkpt>
      <trkpt lat="48.99451" lon="1.06985">
        <ele>28.98</ele>
        <time>2011-04-16T13:00:45Z</time>
      </trkpt>
      <trkpt lat="48.99451" lon="1.06932">
        <ele>25.61</ele>
        <time>2011-04-16T13:00:51Z</time>
      </trkpt>
      <trkpt lat="48.99451" lon="1.06899">
        <ele>28.5</ele>
        <time>2011-04-16T13:00:55Z</time>
      </trkpt>
      <trkpt lat="48.99449" lon="1.06867">
        <ele>36.19</ele>
        <time>2011-04-16T13:00:59Z</time>
      </trkpt>
      <trkpt lat="48.99449" lon="1.06859">
        <ele>29.94</ele>
        <time>2011-04-16T13:01:00Z</time>
      </trkpt>
      <trkpt lat="48.99449" lon="1.06775">
        <ele>26.09</ele>
        <time>2011-04-16T13:01:13Z</time>
      </trkpt>
      <trkpt lat="48.99449" lon="1.0677">
        <ele>29.46</ele>
        <time>2011-04-16T13:01:14Z</time>
      </trkpt>
      <trkpt lat="48.99449" lon="1.06743">
        <ele>27.53</ele>
        <time>2011-04-16T13:01:19Z</time>
      </trkpt>
      <trkpt lat="48.99449" lon="1.06732">
        <ele>30.9</ele>
        <time>2011-04-16T13:01:21Z</time>
      </trkpt>
      <trkpt lat="48.99449" lon="1.06727">
        <ele>30.9</ele>
        <time>2011-04-16T13:01:22Z</time>
      </trkpt>
      <trkpt lat="48.99449" lon="1.06722">
        <ele>26.57</ele>
        <time>2011-04-16T13:01:23Z</time>
      </trkpt>
      <trkpt lat="48.99449" lon="1.06716">
        <ele>27.53</ele>
        <time>2011-04-16T13:01:24Z</time>
      </trkpt>
      <trkpt lat="48.99449" lon="1.06674">
        <ele>31.86</ele>
        <time>2011-04-16T13:01:32Z</time>
      </trkpt>
      <trkpt lat="48.99457" lon="1.06654">
        <ele>26.57</ele>
        <time>2011-04-16T13:01:38Z</time>
      </trkpt>
      <trkpt lat="48.99458" lon="1.06651">
        <ele>29.46</ele>
        <time>2011-04-16T13:01:39Z</time>
      </trkpt>
      <trkpt lat="48.99461" lon="1.06647">
        <ele>29.94</ele>
        <time>2011-04-16T13:01:41Z</time>
      </trkpt>
      <trkpt lat="48.99473" lon="1.0663">
        <ele>32.82</ele>
        <time>2011-04-16T13:01:48Z</time>
      </trkpt>
      <trkpt lat="48.99477" lon="1.0662">
        <ele>27.53</ele>
        <time>2011-04-16T13:01:51Z</time>
      </trkpt>
      <trkpt lat="48.99479" lon="1.06617">
        <ele>32.34</ele>
        <time>2011-04-16T13:01:52Z</time>
      </trkpt>
      <trkpt lat="48.99481" lon="1.06614">
        <ele>28.5</ele>
        <time>2011-04-16T13:01:53Z</time>
      </trkpt>
      <trkpt lat="48.99492" lon="1.06572">
        <ele>31.86</ele>
        <time>2011-04-16T13:02:04Z</time>
      </trkpt>
      <trkpt lat="48.99492" lon="1.0654">
        <ele>31.86</ele>
        <time>2011-04-16T13:02:12Z</time>
      </trkpt>
      <trkpt lat="48.9949" lon="1.06534">
        <ele>28.02</ele>
        <time>2011-04-16T13:02:13Z</time>
      </trkpt>
      <trkpt lat="48.99489" lon="1.06529">
        <ele>28.02</ele>
        <time>2011-04-16T13:02:14Z</time>
      </trkpt>
      <trkpt lat="48.99487" lon="1.0652">
        <ele>30.42</ele>
        <time>2011-04-16T13:02:16Z</time>
      </trkpt>
      <trkpt lat="48.99477" lon="1.06467">
        <ele>27.05</ele>
        <time>2011-04-16T13:02:27Z</time>
      </trkpt>
      <trkpt lat="48.99473" lon="1.06452">
        <ele>32.82</ele>
        <time>2011-04-16T13:02:30Z</time>
      </trkpt>
      <trkpt lat="48.99473" lon="1.06448">
        <ele>28.5</ele>
        <time>2011-04-16T13:02:31Z</time>
      </trkpt>
      <trkpt lat="48.99471" lon="1.06426">
        <ele>30.9</ele>
        <time>2011-04-16T13:02:36Z</time>
      </trkpt>
      <trkpt lat="48.99485" lon="1.06406">
        <ele>31.38</ele>
        <time>2011-04-16T13:02:41Z</time>
      </trkpt>
      <trkpt lat="48.99498" lon="1.06398">
        <ele>32.34</ele>
        <time>2011-04-16T13:02:45Z</time>
      </trkpt>
      <trkpt lat="48.99501" lon="1.06393">
        <ele>31.38</ele>
        <time>2011-04-16T13:02:48Z</time>
      </trkpt>
      <trkpt lat="48.99507" lon="1.06387">
        <ele>31.38</ele>
        <time>2011-04-16T13:02:50Z</time>
      </trkpt>
      <trkpt lat="48.99537" lon="1.06347">
        <ele>31.38</ele>
        <time>2011-04-16T13:02:58Z</time>
      </trkpt>
      <trkpt lat="48.99537" lon="1.06328">
        <ele>28.98</ele>
        <time>2011-04-16T13:03:00Z</time>
      </trkpt>
      <trkpt lat="48.99565" lon="1.06279">
        <ele>29.94</ele>
        <time>2011-04-16T13:03:07Z</time>
      </trkpt>
      <trkpt lat="48.9957" lon="1.06274">
        <ele>29.94</ele>
        <time>2011-04-16T13:03:08Z</time>
      </trkpt>
      <trkpt lat="48.99614" lon="1.06266">
        <ele>31.38</ele>
        <time>2011-04-16T13:03:16Z</time>
      </trkpt>
      <trkpt lat="48.9962" lon="1.06266">
        <ele>28.02</ele>
        <time>2011-04-16T13:03:17Z</time>
      </trkpt>
      <trkpt lat="48.99626" lon="1.06266">
        <ele>31.38</ele>
        <time>2011-04-16T13:03:18Z</time>
      </trkpt>
      <trkpt lat="48.99658" lon="1.06262">
        <ele>32.34</ele>
        <time>2011-04-16T13:03:24Z</time>
      </trkpt>
      <trkpt lat="48.99668" lon="1.06259">
        <ele>33.3</ele>
        <time>2011-04-16T13:03:26Z</time>
      </trkpt>
      <trkpt lat="48.99682" lon="1.06247">
        <ele>32.82</ele>
        <time>2011-04-16T13:03:30Z</time>
      </trkpt>
      <trkpt lat="48.99688" lon="1.06212">
        <ele>30.9</ele>
        <time>2011-04-16T13:03:35Z</time>
      </trkpt>
      <trkpt lat="48.99695" lon="1.06179">
        <ele>31.86</ele>
        <time>2011-04-16T13:03:40Z</time>
      </trkpt>
      <trkpt lat="48.99697" lon="1.06141">
        <ele>31.38</ele>
        <time>2011-04-16T13:03:45Z</time>
      </trkpt>
      <trkpt lat="48.99689" lon="1.06098">
        <ele>33.78</ele>
        <time>2011-04-16T13:03:51Z</time>
      </trkpt>
      <trkpt lat="48.99661" lon="1.06041">
        <ele>33.3</ele>
        <time>2011-04-16T13:04:01Z</time>
      </trkpt>
      <trkpt lat="48.99646" lon="1.06024">
        <ele>33.78</ele>
        <time>2011-04-16T13:04:05Z</time>
      </trkpt>
      <trkpt lat="48.9961" lon="1.06">
        <ele>34.26</ele>
        <time>2011-04-16T13:04:13Z</time>
      </trkpt>
      <trkpt lat="48.99575" lon="1.05932">
        <ele>33.3</ele>
        <time>2011-04-16T13:04:25Z</time>
      </trkpt>
      <trkpt lat="48.99547" lon="1.05876">
        <ele>37.15</ele>
        <time>2011-04-16T13:04:33Z</time>
      </trkpt>
      <trkpt lat="48.99535" lon="1.05854">
        <ele>34.26</ele>
        <time>2011-04-16T13:04:36Z</time>
      </trkpt>
      <trkpt lat="48.99496" lon="1.05815">
        <ele>34.74</ele>
        <time>2011-04-16T13:04:44Z</time>
      </trkpt>
      <trkpt lat="48.99471" lon="1.05767">
        <ele>34.26</ele>
        <time>2011-04-16T13:04:51Z</time>
      </trkpt>
      <trkpt lat="48.99451" lon="1.05624">
        <ele>37.15</ele>
        <time>2011-04-16T13:05:08Z</time>
      </trkpt>
      <trkpt lat="48.99452" lon="1.05591">
        <ele>36.67</ele>
        <time>2011-04-16T13:05:12Z</time>
      </trkpt>
      <trkpt lat="48.99466" lon="1.05554">
        <ele>36.67</ele>
        <time>2011-04-16T13:05:17Z</time>
      </trkpt>
      <trkpt lat="48.99505" lon="1.0551">
        <ele>38.11</ele>
        <time>2011-04-16T13:05:25Z</time>
      </trkpt>
      <trkpt lat="48.99548" lon="1.05525">
        <ele>36.19</ele>
        <time>2011-04-16T13:05:33Z</time>
      </trkpt>
      <trkpt lat="48.99543" lon="1.0558">
        <ele>39.07</ele>
        <time>2011-04-16T13:05:39Z</time>
      </trkpt>
      <trkpt lat="48.99533" lon="1.05591">
        <ele>39.07</ele>
        <time>2011-04-16T13:05:41Z</time>
      </trkpt>
      <trkpt lat="48.99502" lon="1.05609">
        <ele>40.99</ele>
        <time>2011-04-16T13:05:48Z</time>
      </trkpt>
      <trkpt lat="48.99488" lon="1.05615">
        <ele>42.92</ele>
        <time>2011-04-16T13:05:52Z</time>
      </trkpt>
      <trkpt lat="48.99411" lon="1.05628">
        <ele>43.88</ele>
        <time>2011-04-16T13:06:12Z</time>
      </trkpt>
      <trkpt lat="48.99378" lon="1.05632">
        <ele>40.51</ele>
        <time>2011-04-16T13:06:17Z</time>
      </trkpt>
      <trkpt lat="48.99343" lon="1.05635">
        <ele>39.55</ele>
        <time>2011-04-16T13:06:21Z</time>
      </trkpt>
      <trkpt lat="48.99297" lon="1.05627">
        <ele>42.92</ele>
        <time>2011-04-16T13:06:27Z</time>
      </trkpt>
      <trkpt lat="48.99287" lon="1.0562">
        <ele>45.32</ele>
        <time>2011-04-16T13:06:29Z</time>
      </trkpt>
      <trkpt lat="48.99248" lon="1.05607">
        <ele>49.65</ele>
        <time>2011-04-16T13:06:39Z</time>
      </trkpt>
      <trkpt lat="48.99231" lon="1.05605">
        <ele>51.09</ele>
        <time>2011-04-16T13:06:44Z</time>
      </trkpt>
      <trkpt lat="48.992" lon="1.056">
        <ele>53.49</ele>
        <time>2011-04-16T13:06:55Z</time>
      </trkpt>
      <trkpt lat="48.99165" lon="1.0561">
        <ele>57.82</ele>
        <time>2011-04-16T13:07:10Z</time>
      </trkpt>
      <trkpt lat="48.99154" lon="1.05626">
        <ele>58.78</ele>
        <time>2011-04-16T13:07:17Z</time>
      </trkpt>
      <trkpt lat="48.99133" lon="1.05657">
        <ele>60.7</ele>
        <time>2011-04-16T13:07:34Z</time>
      </trkpt>
      <trkpt lat="48.99116" lon="1.0565">
        <ele>64.07</ele>
        <time>2011-04-16T13:07:45Z</time>
      </trkpt>
      <trkpt lat="48.99105" lon="1.05633">
        <ele>67.43</ele>
        <time>2011-04-16T13:07:57Z</time>
      </trkpt>
      <trkpt lat="48.99099" lon="1.05618">
        <ele>66.95</ele>
        <time>2011-04-16T13:08:05Z</time>
      </trkpt>
      <trkpt lat="48.99095" lon="1.05611">
        <ele>68.39</ele>
        <time>2011-04-16T13:08:10Z</time>
      </trkpt>
      <trkpt lat="48.99087" lon="1.05597">
        <ele>69.83</ele>
        <time>2011-04-16T13:08:19Z</time>
      </trkpt>
      <trkpt lat="48.99083" lon="1.05595">
        <ele>69.83</ele>
        <time>2011-04-16T13:08:22Z</time>
      </trkpt>
      <trkpt lat="48.9908" lon="1.05595">
        <ele>70.31</ele>
        <time>2011-04-16T13:08:25Z</time>
      </trkpt>
      <trkpt lat="48.99061" lon="1.05579">
        <ele>72.24</ele>
        <time>2011-04-16T13:08:41Z</time>
      </trkpt>
      <trkpt lat="48.99051" lon="1.05573">
        <ele>72.72</ele>
        <time>2011-04-16T13:08:49Z</time>
      </trkpt>
      <trkpt lat="48.99046" lon="1.0557">
        <ele>74.16</ele>
        <time>2011-04-16T13:08:54Z</time>
      </trkpt>
      <trkpt lat="48.99042" lon="1.05571">
        <ele>74.64</ele>
        <time>2011-04-16T13:08:57Z</time>
      </trkpt>
      <trkpt lat="48.99031" lon="1.0557">
        <ele>76.08</ele>
        <time>2011-04-16T13:09:03Z</time>
      </trkpt>
      <trkpt lat="48.9902" lon="1.05566">
        <ele>76.56</ele>
        <time>2011-04-16T13:09:11Z</time>
      </trkpt>
      <trkpt lat="48.99017" lon="1.05564">
        <ele>76.56</ele>
        <time>2011-04-16T13:09:13Z</time>
      </trkpt>
      <trkpt lat="48.9901" lon="1.05567">
        <ele>77.04</ele>
        <time>2011-04-16T13:09:19Z</time>
      </trkpt>
      <trkpt lat="48.99001" lon="1.05565">
        <ele>78</ele>
        <time>2011-04-16T13:09:27Z</time>
      </trkpt>
      <trkpt lat="48.98981" lon="1.0557">
        <ele>80.41</ele>
        <time>2011-04-16T13:09:43Z</time>
      </trkpt>
      <trkpt lat="48.98967" lon="1.05579">
        <ele>82.33</ele>
        <time>2011-04-16T13:09:55Z</time>
      </trkpt>
      <trkpt lat="48.98951" lon="1.0559">
        <ele>83.77</ele>
        <time>2011-04-16T13:10:05Z</time>
      </trkpt>
      <trkpt lat="48.98947" lon="1.0559">
        <ele>85.21</ele>
        <time>2011-04-16T13:10:08Z</time>
      </trkpt>
      <trkpt lat="48.98946" lon="1.0559">
        <ele>85.21</ele>
        <time>2011-04-16T13:10:09Z</time>
      </trkpt>
      <trkpt lat="48.9894" lon="1.05595">
        <ele>86.18</ele>
        <time>2011-04-16T13:10:14Z</time>
      </trkpt>
      <trkpt lat="48.98934" lon="1.056">
        <ele>87.62</ele>
        <time>2011-04-16T13:10:19Z</time>
      </trkpt>
      <trkpt lat="48.98925" lon="1.05606">
        <ele>87.62</ele>
        <time>2011-04-16T13:10:25Z</time>
      </trkpt>
      <trkpt lat="48.98907" lon="1.05613">
        <ele>88.58</ele>
        <time>2011-04-16T13:10:35Z</time>
      </trkpt>
      <trkpt lat="48.98896" lon="1.05618">
        <ele>90.02</ele>
        <time>2011-04-16T13:10:47Z</time>
      </trkpt>
      <trkpt lat="48.98888" lon="1.05612">
        <ele>90.5</ele>
        <time>2011-04-16T13:11:01Z</time>
      </trkpt>
      <trkpt lat="48.98883" lon="1.05619">
        <ele>91.46</ele>
        <time>2011-04-16T13:11:07Z</time>
      </trkpt>
      <trkpt lat="48.98865" lon="1.05616">
        <ele>91.46</ele>
        <time>2011-04-16T13:11:20Z</time>
      </trkpt>
      <trkpt lat="48.98826" lon="1.05603">
        <ele>94.83</ele>
        <time>2011-04-16T13:11:38Z</time>
      </trkpt>
      <trkpt lat="48.9878" lon="1.05589">
        <ele>96.27</ele>
        <time>2011-04-16T13:11:57Z</time>
      </trkpt>
      <trkpt lat="48.98758" lon="1.05582">
        <ele>97.23</ele>
        <time>2011-04-16T13:12:10Z</time>
      </trkpt>
      <trkpt lat="48.98722" lon="1.05568">
        <ele>99.63</ele>
        <time>2011-04-16T13:12:24Z</time>
      </trkpt>
      <trkpt lat="48.9869" lon="1.05582">
        <ele>100.11</ele>
        <time>2011-04-16T13:12:37Z</time>
      </trkpt>
      <trkpt lat="48.98682" lon="1.05586">
        <ele>102.04</ele>
        <time>2011-04-16T13:12:40Z</time>
      </trkpt>
      <trkpt lat="48.98635" lon="1.05623">
        <ele>102.52</ele>
        <time>2011-04-16T13:12:57Z</time>
      </trkpt>
      <trkpt lat="48.98602" lon="1.05657">
        <ele>103</ele>
        <time>2011-04-16T13:13:12Z</time>
      </trkpt>
      <trkpt lat="48.98575" lon="1.05682">
        <ele>103.96</ele>
        <time>2011-04-16T13:13:25Z</time>
      </trkpt>
      <trkpt lat="48.98535" lon="1.05709">
        <ele>104.44</ele>
        <time>2011-04-16T13:13:39Z</time>
      </trkpt>
      <trkpt lat="48.98498" lon="1.05736">
        <ele>104.44</ele>
        <time>2011-04-16T13:13:52Z</time>
      </trkpt>
      <trkpt lat="48.98471" lon="1.05724">
        <ele>105.4</ele>
        <time>2011-04-16T13:14:02Z</time>
      </trkpt>
      <trkpt lat="48.98446" lon="1.05664">
        <ele>105.4</ele>
        <time>2011-04-16T13:14:17Z</time>
      </trkpt>
      <trkpt lat="48.98421" lon="1.05586">
        <ele>105.4</ele>
        <time>2011-04-16T13:14:32Z</time>
      </trkpt>
      <trkpt lat="48.98413" lon="1.05565">
        <ele>105.88</ele>
        <time>2011-04-16T13:14:36Z</time>
      </trkpt>
      <trkpt lat="48.98392" lon="1.05506">
        <ele>105.4</ele>
        <time>2011-04-16T13:14:47Z</time>
      </trkpt>
      <trkpt lat="48.98382" lon="1.0548">
        <ele>105.88</ele>
        <time>2011-04-16T13:14:52Z</time>
      </trkpt>
      <trkpt lat="48.98356" lon="1.05407">
        <ele>105.4</ele>
        <time>2011-04-16T13:15:04Z</time>
      </trkpt>
      <trkpt lat="48.98339" lon="1.05365">
        <ele>101.08</ele>
        <time>2011-04-16T13:15:09Z</time>
      </trkpt>
      <trkpt lat="48.98331" lon="1.05343">
        <ele>97.71</ele>
        <time>2011-04-16T13:15:12Z</time>
      </trkpt>
      <trkpt lat="48.98326" lon="1.05328">
        <ele>94.83</ele>
        <time>2011-04-16T13:15:14Z</time>
      </trkpt>
      <trkpt lat="48.98314" lon="1.05295">
        <ele>89.54</ele>
        <time>2011-04-16T13:15:18Z</time>
      </trkpt>
      <trkpt lat="48.98311" lon="1.05287">
        <ele>88.58</ele>
        <time>2011-04-16T13:15:19Z</time>
      </trkpt>
      <trkpt lat="48.98297" lon="1.05249">
        <ele>83.77</ele>
        <time>2011-04-16T13:15:23Z</time>
      </trkpt>
      <trkpt lat="48.98294" lon="1.0524">
        <ele>81.85</ele>
        <time>2011-04-16T13:15:24Z</time>
      </trkpt>
      <trkpt lat="48.98283" lon="1.05204">
        <ele>77.04</ele>
        <time>2011-04-16T13:15:28Z</time>
      </trkpt>
      <trkpt lat="48.98273" lon="1.05177">
        <ele>72.72</ele>
        <time>2011-04-16T13:15:31Z</time>
      </trkpt>
      <trkpt lat="48.98263" lon="1.05148">
        <ele>68.39</ele>
        <time>2011-04-16T13:15:34Z</time>
      </trkpt>
      <trkpt lat="48.98259" lon="1.05138">
        <ele>68.39</ele>
        <time>2011-04-16T13:15:35Z</time>
      </trkpt>
      <trkpt lat="48.98253" lon="1.05121">
        <ele>64.55</ele>
        <time>2011-04-16T13:15:37Z</time>
      </trkpt>
      <trkpt lat="48.98246" lon="1.05103">
        <ele>63.1</ele>
        <time>2011-04-16T13:15:39Z</time>
      </trkpt>
      <trkpt lat="48.98223" lon="1.05097">
        <ele>61.18</ele>
        <time>2011-04-16T13:15:45Z</time>
      </trkpt>
      <trkpt lat="48.98217" lon="1.05102">
        <ele>62.62</ele>
        <time>2011-04-16T13:15:49Z</time>
      </trkpt>
      <trkpt lat="48.98181" lon="1.05127">
        <ele>63.1</ele>
        <time>2011-04-16T13:16:00Z</time>
      </trkpt>
      <trkpt lat="48.98153" lon="1.05183">
        <ele>63.58</ele>
        <time>2011-04-16T13:16:13Z</time>
      </trkpt>
      <trkpt lat="48.98146" lon="1.05245">
        <ele>64.55</ele>
        <time>2011-04-16T13:16:24Z</time>
      </trkpt>
      <trkpt lat="48.98146" lon="1.05251">
        <ele>64.07</ele>
        <time>2011-04-16T13:16:25Z</time>
      </trkpt>
      <trkpt lat="48.98138" lon="1.05316">
        <ele>64.55</ele>
        <time>2011-04-16T13:16:37Z</time>
      </trkpt>
      <trkpt lat="48.9812" lon="1.05347">
        <ele>65.03</ele>
        <time>2011-04-16T13:16:47Z</time>
      </trkpt>
      <trkpt lat="48.98097" lon="1.05376">
        <ele>66.47</ele>
        <time>2011-04-16T13:16:57Z</time>
      </trkpt>
      <trkpt lat="48.98068" lon="1.05417">
        <ele>67.91</ele>
        <time>2011-04-16T13:17:13Z</time>
      </trkpt>
      <trkpt lat="48.98066" lon="1.0542">
        <ele>67.91</ele>
        <time>2011-04-16T13:17:14Z</time>
      </trkpt>
      <trkpt lat="48.98055" lon="1.05448">
        <ele>69.35</ele>
        <time>2011-04-16T13:17:23Z</time>
      </trkpt>
      <trkpt lat="48.98049" lon="1.0547">
        <ele>70.79</ele>
        <time>2011-04-16T13:17:30Z</time>
      </trkpt>
      <trkpt lat="48.98045" lon="1.05507">
        <ele>71.76</ele>
        <time>2011-04-16T13:17:39Z</time>
      </trkpt>
      <trkpt lat="48.98033" lon="1.05545">
        <ele>72.72</ele>
        <time>2011-04-16T13:17:52Z</time>
      </trkpt>
      <trkpt lat="48.98028" lon="1.05549">
        <ele>72.72</ele>
        <time>2011-04-16T13:17:55Z</time>
      </trkpt>
      <trkpt lat="48.98011" lon="1.05551">
        <ele>74.64</ele>
        <time>2011-04-16T13:18:07Z</time>
      </trkpt>
      <trkpt lat="48.98005" lon="1.05553">
        <ele>75.6</ele>
        <time>2011-04-16T13:18:10Z</time>
      </trkpt>
      <trkpt lat="48.97999" lon="1.05555">
        <ele>75.6</ele>
        <time>2011-04-16T13:18:14Z</time>
      </trkpt>
      <trkpt lat="48.97976" lon="1.05546">
        <ele>77.04</ele>
        <time>2011-04-16T13:18:26Z</time>
      </trkpt>
      <trkpt lat="48.97971" lon="1.05536">
        <ele>78</ele>
        <time>2011-04-16T13:18:31Z</time>
      </trkpt>
      <trkpt lat="48.97958" lon="1.05515">
        <ele>79.45</ele>
        <time>2011-04-16T13:18:43Z</time>
      </trkpt>
      <trkpt lat="48.97937" lon="1.05492">
        <ele>81.85</ele>
        <time>2011-04-16T13:18:59Z</time>
      </trkpt>
      <trkpt lat="48.9793" lon="1.05484">
        <ele>82.81</ele>
        <time>2011-04-16T13:19:11Z</time>
      </trkpt>
      <trkpt lat="48.97923" lon="1.0548">
        <ele>83.77</ele>
        <time>2011-04-16T13:19:24Z</time>
      </trkpt>
      <trkpt lat="48.97917" lon="1.05475">
        <ele>84.25</ele>
        <time>2011-04-16T13:19:36Z</time>
      </trkpt>
      <trkpt lat="48.97915" lon="1.05471">
        <ele>86.18</ele>
        <time>2011-04-16T13:20:06Z</time>
      </trkpt>
      <trkpt lat="48.97911" lon="1.05455">
        <ele>87.14</ele>
        <time>2011-04-16T13:20:12Z</time>
      </trkpt>
      <trkpt lat="48.97907" lon="1.05443">
        <ele>88.58</ele>
        <time>2011-04-16T13:20:17Z</time>
      </trkpt>
      <trkpt lat="48.97898" lon="1.05414">
        <ele>90.5</ele>
        <time>2011-04-16T13:20:33Z</time>
      </trkpt>
      <trkpt lat="48.97892" lon="1.05401">
        <ele>90.5</ele>
        <time>2011-04-16T13:20:40Z</time>
      </trkpt>
      <trkpt lat="48.97889" lon="1.0539">
        <ele>91.46</ele>
        <time>2011-04-16T13:20:45Z</time>
      </trkpt>
      <trkpt lat="48.97878" lon="1.05352">
        <ele>93.87</ele>
        <time>2011-04-16T13:21:03Z</time>
      </trkpt>
      <trkpt lat="48.97877" lon="1.05346">
        <ele>94.35</ele>
        <time>2011-04-16T13:21:06Z</time>
      </trkpt>
      <trkpt lat="48.97876" lon="1.05336">
        <ele>93.39</ele>
        <time>2011-04-16T13:21:11Z</time>
      </trkpt>
      <trkpt lat="48.97876" lon="1.05325">
        <ele>94.35</ele>
        <time>2011-04-16T13:21:22Z</time>
      </trkpt>
      <trkpt lat="48.97874" lon="1.05324">
        <ele>94.35</ele>
        <time>2011-04-16T13:21:24Z</time>
      </trkpt>
      <trkpt lat="48.97868" lon="1.05316">
        <ele>95.31</ele>
        <time>2011-04-16T13:21:41Z</time>
      </trkpt>
      <trkpt lat="48.97867" lon="1.05312">
        <ele>94.35</ele>
        <time>2011-04-16T13:22:02Z</time>
      </trkpt>
      <trkpt lat="48.97864" lon="1.05289">
        <ele>95.79</ele>
        <time>2011-04-16T13:22:16Z</time>
      </trkpt>
      <trkpt lat="48.97858" lon="1.05258">
        <ele>97.71</ele>
        <time>2011-04-16T13:22:29Z</time>
      </trkpt>
      <trkpt lat="48.97857" lon="1.05249">
        <ele>98.19</ele>
        <time>2011-04-16T13:22:32Z</time>
      </trkpt>
      <trkpt lat="48.97856" lon="1.05242">
        <ele>98.19</ele>
        <time>2011-04-16T13:22:35Z</time>
      </trkpt>
      <trkpt lat="48.97851" lon="1.05217">
        <ele>99.63</ele>
        <time>2011-04-16T13:22:44Z</time>
      </trkpt>
      <trkpt lat="48.97845" lon="1.05176">
        <ele>101.56</ele>
        <time>2011-04-16T13:23:00Z</time>
      </trkpt>
      <trkpt lat="48.97838" lon="1.05137">
        <ele>103</ele>
        <time>2011-04-16T13:23:13Z</time>
      </trkpt>
      <trkpt lat="48.97838" lon="1.05098">
        <ele>105.4</ele>
        <time>2011-04-16T13:23:28Z</time>
      </trkpt>
      <trkpt lat="48.97841" lon="1.05085">
        <ele>106.36</ele>
        <time>2011-04-16T13:23:33Z</time>
      </trkpt>
      <trkpt lat="48.97842" lon="1.05075">
        <ele>107.32</ele>
        <time>2011-04-16T13:23:37Z</time>
      </trkpt>
      <trkpt lat="48.97852" lon="1.05028">
        <ele>108.77</ele>
        <time>2011-04-16T13:23:56Z</time>
      </trkpt>
      <trkpt lat="48.97854" lon="1.05015">
        <ele>109.25</ele>
        <time>2011-04-16T13:24:07Z</time>
      </trkpt>
      <trkpt lat="48.97854" lon="1.05009">
        <ele>109.73</ele>
        <time>2011-04-16T13:24:15Z</time>
      </trkpt>
      <trkpt lat="48.97864" lon="1.04988">
        <ele>110.21</ele>
        <time>2011-04-16T13:24:30Z</time>
      </trkpt>
      <trkpt lat="48.97876" lon="1.04964">
        <ele>111.17</ele>
        <time>2011-04-16T13:24:45Z</time>
      </trkpt>
      <trkpt lat="48.97878" lon="1.0496">
        <ele>111.17</ele>
        <time>2011-04-16T13:24:48Z</time>
      </trkpt>
      <trkpt lat="48.9788" lon="1.04949">
        <ele>111.65</ele>
        <time>2011-04-16T13:24:54Z</time>
      </trkpt>
      <trkpt lat="48.9789" lon="1.04923">
        <ele>112.13</ele>
        <time>2011-04-16T13:25:05Z</time>
      </trkpt>
      <trkpt lat="48.97898" lon="1.04908">
        <ele>112.61</ele>
        <time>2011-04-16T13:25:12Z</time>
      </trkpt>
      <trkpt lat="48.97914" lon="1.04888">
        <ele>113.09</ele>
        <time>2011-04-16T13:25:27Z</time>
      </trkpt>
      <trkpt lat="48.97916" lon="1.04886">
        <ele>112.61</ele>
        <time>2011-04-16T13:25:29Z</time>
      </trkpt>
      <trkpt lat="48.97922" lon="1.04879">
        <ele>112.61</ele>
        <time>2011-04-16T13:25:34Z</time>
      </trkpt>
      <trkpt lat="48.97948" lon="1.04848">
        <ele>112.61</ele>
        <time>2011-04-16T13:25:49Z</time>
      </trkpt>
      <trkpt lat="48.97952" lon="1.04844">
        <ele>112.61</ele>
        <time>2011-04-16T13:25:51Z</time>
      </trkpt>
      <trkpt lat="48.97972" lon="1.04827">
        <ele>112.61</ele>
        <time>2011-04-16T13:26:01Z</time>
      </trkpt>
      <trkpt lat="48.97977" lon="1.0482">
        <ele>113.57</ele>
        <time>2011-04-16T13:26:05Z</time>
      </trkpt>
      <trkpt lat="48.97969" lon="1.04781">
        <ele>114.05</ele>
        <time>2011-04-16T13:26:20Z</time>
      </trkpt>
      <trkpt lat="48.97956" lon="1.04749">
        <ele>114.53</ele>
        <time>2011-04-16T13:26:31Z</time>
      </trkpt>
      <trkpt lat="48.97937" lon="1.04745">
        <ele>115.5</ele>
        <time>2011-04-16T13:26:44Z</time>
      </trkpt>
      <trkpt lat="48.97927" lon="1.04736">
        <ele>115.5</ele>
        <time>2011-04-16T13:26:52Z</time>
      </trkpt>
      <trkpt lat="48.97895" lon="1.04745">
        <ele>115.98</ele>
        <time>2011-04-16T13:27:06Z</time>
      </trkpt>
      <trkpt lat="48.97862" lon="1.04747">
        <ele>115.98</ele>
        <time>2011-04-16T13:27:20Z</time>
      </trkpt>
      <trkpt lat="48.97835" lon="1.04754">
        <ele>117.42</ele>
        <time>2011-04-16T13:27:31Z</time>
      </trkpt>
      <trkpt lat="48.978" lon="1.04761">
        <ele>117.9</ele>
        <time>2011-04-16T13:27:45Z</time>
      </trkpt>
      <trkpt lat="48.9778" lon="1.04759">
        <ele>117.9</ele>
        <time>2011-04-16T13:27:55Z</time>
      </trkpt>
      <trkpt lat="48.97747" lon="1.04761">
        <ele>118.38</ele>
        <time>2011-04-16T13:28:08Z</time>
      </trkpt>
      <trkpt lat="48.97715" lon="1.0477">
        <ele>118.86</ele>
        <time>2011-04-16T13:28:20Z</time>
      </trkpt>
      <trkpt lat="48.97676" lon="1.04777">
        <ele>119.34</ele>
        <time>2011-04-16T13:28:33Z</time>
      </trkpt>
      <trkpt lat="48.97633" lon="1.04771">
        <ele>120.3</ele>
        <time>2011-04-16T13:28:46Z</time>
      </trkpt>
      <trkpt lat="48.97595" lon="1.04749">
        <ele>120.3</ele>
        <time>2011-04-16T13:28:58Z</time>
      </trkpt>
      <trkpt lat="48.97575" lon="1.04774">
        <ele>120.3</ele>
        <time>2011-04-16T13:29:05Z</time>
      </trkpt>
      <trkpt lat="48.97559" lon="1.04796">
        <ele>120.3</ele>
        <time>2011-04-16T13:29:10Z</time>
      </trkpt>
      <trkpt lat="48.97533" lon="1.04842">
        <ele>120.3</ele>
        <time>2011-04-16T13:29:19Z</time>
      </trkpt>
      <trkpt lat="48.9748" lon="1.04944">
        <ele>120.3</ele>
        <time>2011-04-16T13:29:36Z</time>
      </trkpt>
      <trkpt lat="48.97444" lon="1.05017">
        <ele>120.78</ele>
        <time>2011-04-16T13:29:48Z</time>
      </trkpt>
      <trkpt lat="48.97418" lon="1.05063">
        <ele>120.78</ele>
        <time>2011-04-16T13:29:56Z</time>
      </trkpt>
      <trkpt lat="48.97411" lon="1.05072">
        <ele>120.78</ele>
        <time>2011-04-16T13:29:58Z</time>
      </trkpt>
      <trkpt lat="48.97396" lon="1.05096">
        <ele>120.3</ele>
        <time>2011-04-16T13:30:03Z</time>
      </trkpt>
      <trkpt lat="48.97382" lon="1.05085">
        <ele>121.74</ele>
        <time>2011-04-16T13:30:10Z</time>
      </trkpt>
      <trkpt lat="48.97362" lon="1.04994">
        <ele>122.22</ele>
        <time>2011-04-16T13:30:25Z</time>
      </trkpt>
      <trkpt lat="48.97333" lon="1.04868">
        <ele>122.71</ele>
        <time>2011-04-16T13:30:40Z</time>
      </trkpt>
      <trkpt lat="48.97329" lon="1.04849">
        <ele>121.26</ele>
        <time>2011-04-16T13:30:42Z</time>
      </trkpt>
      <trkpt lat="48.97304" lon="1.04739">
        <ele>121.74</ele>
        <time>2011-04-16T13:30:54Z</time>
      </trkpt>
      <trkpt lat="48.97299" lon="1.04719">
        <ele>121.74</ele>
        <time>2011-04-16T13:30:56Z</time>
      </trkpt>
      <trkpt lat="48.97268" lon="1.04587">
        <ele>121.26</ele>
        <time>2011-04-16T13:31:09Z</time>
      </trkpt>
      <trkpt lat="48.97244" lon="1.045">
        <ele>120.78</ele>
        <time>2011-04-16T13:31:19Z</time>
      </trkpt>
      <trkpt lat="48.97238" lon="1.04462">
        <ele>121.74</ele>
        <time>2011-04-16T13:31:23Z</time>
      </trkpt>
      <trkpt lat="48.97223" lon="1.04401">
        <ele>121.26</ele>
        <time>2011-04-16T13:31:32Z</time>
      </trkpt>
      <trkpt lat="48.97208" lon="1.04402">
        <ele>121.26</ele>
        <time>2011-04-16T13:31:40Z</time>
      </trkpt>
      <trkpt lat="48.97202" lon="1.04403">
        <ele>121.74</ele>
        <time>2011-04-16T13:31:55Z</time>
      </trkpt>
      <trkpt lat="48.972" lon="1.04408">
        <ele>122.22</ele>
        <time>2011-04-16T13:32:10Z</time>
      </trkpt>
      <trkpt lat="48.97195" lon="1.0441">
        <ele>121.74</ele>
        <time>2011-04-16T13:32:25Z</time>
      </trkpt>
      <trkpt lat="48.97182" lon="1.04419">
        <ele>121.74</ele>
        <time>2011-04-16T13:32:33Z</time>
      </trkpt>
      <trkpt lat="48.97167" lon="1.04429">
        <ele>122.22</ele>
        <time>2011-04-16T13:32:38Z</time>
      </trkpt>
      <trkpt lat="48.9716" lon="1.04432">
        <ele>121.74</ele>
        <time>2011-04-16T13:32:40Z</time>
      </trkpt>
      <trkpt lat="48.97144" lon="1.04443">
        <ele>121.74</ele>
        <time>2011-04-16T13:32:44Z</time>
      </trkpt>
      <trkpt lat="48.9712" lon="1.04459">
        <ele>121.26</ele>
        <time>2011-04-16T13:32:50Z</time>
      </trkpt>
      <trkpt lat="48.97086" lon="1.04485">
        <ele>121.26</ele>
        <time>2011-04-16T13:32:58Z</time>
      </trkpt>
      <trkpt lat="48.97062" lon="1.04498">
        <ele>121.26</ele>
        <time>2011-04-16T13:33:03Z</time>
      </trkpt>
      <trkpt lat="48.97043" lon="1.04511">
        <ele>120.3</ele>
        <time>2011-04-16T13:33:07Z</time>
      </trkpt>
      <trkpt lat="48.97018" lon="1.0453">
        <ele>121.26</ele>
        <time>2011-04-16T13:33:12Z</time>
      </trkpt>
      <trkpt lat="48.96979" lon="1.04553">
        <ele>120.3</ele>
        <time>2011-04-16T13:33:19Z</time>
      </trkpt>
      <trkpt lat="48.96968" lon="1.0456">
        <ele>121.26</ele>
        <time>2011-04-16T13:33:21Z</time>
      </trkpt>
      <trkpt lat="48.96957" lon="1.04566">
        <ele>120.78</ele>
        <time>2011-04-16T13:33:23Z</time>
      </trkpt>
      <trkpt lat="48.9693" lon="1.04583">
        <ele>120.3</ele>
        <time>2011-04-16T13:33:28Z</time>
      </trkpt>
      <trkpt lat="48.96856" lon="1.04637">
        <ele>119.82</ele>
        <time>2011-04-16T13:33:41Z</time>
      </trkpt>
      <trkpt lat="48.96831" lon="1.04657">
        <ele>119.82</ele>
        <time>2011-04-16T13:33:46Z</time>
      </trkpt>
      <trkpt lat="48.96784" lon="1.04686">
        <ele>119.82</ele>
        <time>2011-04-16T13:33:55Z</time>
      </trkpt>
      <trkpt lat="48.96744" lon="1.04715">
        <ele>119.82</ele>
        <time>2011-04-16T13:34:03Z</time>
      </trkpt>
      <trkpt lat="48.96715" lon="1.04732">
        <ele>121.26</ele>
        <time>2011-04-16T13:34:09Z</time>
      </trkpt>
      <trkpt lat="48.96704" lon="1.04743">
        <ele>120.78</ele>
        <time>2011-04-16T13:34:12Z</time>
      </trkpt>
      <trkpt lat="48.96691" lon="1.04751">
        <ele>120.3</ele>
        <time>2011-04-16T13:34:15Z</time>
      </trkpt>
      <trkpt lat="48.96682" lon="1.04755">
        <ele>119.82</ele>
        <time>2011-04-16T13:34:17Z</time>
      </trkpt>
      <trkpt lat="48.96642" lon="1.04785">
        <ele>119.82</ele>
        <time>2011-04-16T13:34:26Z</time>
      </trkpt>
      <trkpt lat="48.96589" lon="1.04814">
        <ele>118.86</ele>
        <time>2011-04-16T13:34:40Z</time>
      </trkpt>
      <trkpt lat="48.96578" lon="1.04822">
        <ele>119.34</ele>
        <time>2011-04-16T13:34:44Z</time>
      </trkpt>
      <trkpt lat="48.96574" lon="1.04819">
        <ele>117.9</ele>
        <time>2011-04-16T13:34:48Z</time>
      </trkpt>
      <trkpt lat="48.96567" lon="1.0483">
        <ele>118.38</ele>
        <time>2011-04-16T13:34:54Z</time>
      </trkpt>
      <trkpt lat="48.96553" lon="1.04868">
        <ele>118.86</ele>
        <time>2011-04-16T13:35:06Z</time>
      </trkpt>
      <trkpt lat="48.96552" lon="1.04871">
        <ele>118.86</ele>
        <time>2011-04-16T13:35:07Z</time>
      </trkpt>
      <trkpt lat="48.96547" lon="1.04872">
        <ele>119.82</ele>
        <time>2011-04-16T13:35:10Z</time>
      </trkpt>
      <trkpt lat="48.96534" lon="1.04859">
        <ele>118.86</ele>
        <time>2011-04-16T13:35:19Z</time>
      </trkpt>
      <trkpt lat="48.96531" lon="1.04859">
        <ele>119.34</ele>
        <time>2011-04-16T13:35:20Z</time>
      </trkpt>
      <trkpt lat="48.96491" lon="1.0488">
        <ele>120.3</ele>
        <time>2011-04-16T13:35:34Z</time>
      </trkpt>
      <trkpt lat="48.96449" lon="1.04911">
        <ele>120.78</ele>
        <time>2011-04-16T13:35:46Z</time>
      </trkpt>
      <trkpt lat="48.96408" lon="1.04941">
        <ele>121.26</ele>
        <time>2011-04-16T13:35:57Z</time>
      </trkpt>
      <trkpt lat="48.964" lon="1.04947">
        <ele>121.26</ele>
        <time>2011-04-16T13:35:59Z</time>
      </trkpt>
      <trkpt lat="48.96385" lon="1.04954">
        <ele>121.26</ele>
        <time>2011-04-16T13:36:02Z</time>
      </trkpt>
      <trkpt lat="48.96354" lon="1.04977">
        <ele>121.26</ele>
        <time>2011-04-16T13:36:09Z</time>
      </trkpt>
      <trkpt lat="48.9633" lon="1.05006">
        <ele>120.3</ele>
        <time>2011-04-16T13:36:15Z</time>
      </trkpt>
      <trkpt lat="48.96308" lon="1.05041">
        <ele>118.38</ele>
        <time>2011-04-16T13:36:21Z</time>
      </trkpt>
      <trkpt lat="48.96291" lon="1.05044">
        <ele>119.82</ele>
        <time>2011-04-16T13:36:24Z</time>
      </trkpt>
      <trkpt lat="48.96257" lon="1.05039">
        <ele>121.74</ele>
        <time>2011-04-16T13:36:32Z</time>
      </trkpt>
      <trkpt lat="48.96234" lon="1.05055">
        <ele>122.22</ele>
        <time>2011-04-16T13:36:39Z</time>
      </trkpt>
      <trkpt lat="48.96211" lon="1.05065">
        <ele>122.22</ele>
        <time>2011-04-16T13:36:45Z</time>
      </trkpt>
      <trkpt lat="48.96181" lon="1.05045">
        <ele>122.71</ele>
        <time>2011-04-16T13:36:57Z</time>
      </trkpt>
      <trkpt lat="48.9615" lon="1.05032">
        <ele>122.22</ele>
        <time>2011-04-16T13:37:10Z</time>
      </trkpt>
      <trkpt lat="48.96114" lon="1.05024">
        <ele>122.71</ele>
        <time>2011-04-16T13:37:20Z</time>
      </trkpt>
      <trkpt lat="48.96088" lon="1.05025">
        <ele>122.22</ele>
        <time>2011-04-16T13:37:28Z</time>
      </trkpt>
      <trkpt lat="48.96085" lon="1.05026">
        <ele>123.19</ele>
        <time>2011-04-16T13:37:29Z</time>
      </trkpt>
      <trkpt lat="48.96059" lon="1.05024">
        <ele>121.74</ele>
        <time>2011-04-16T13:37:38Z</time>
      </trkpt>
      <trkpt lat="48.9603" lon="1.05021">
        <ele>119.82</ele>
        <time>2011-04-16T13:37:46Z</time>
      </trkpt>
      <trkpt lat="48.95997" lon="1.04999">
        <ele>120.3</ele>
        <time>2011-04-16T13:37:53Z</time>
      </trkpt>
      <trkpt lat="48.95972" lon="1.04987">
        <ele>120.78</ele>
        <time>2011-04-16T13:38:01Z</time>
      </trkpt>
      <trkpt lat="48.95968" lon="1.04986">
        <ele>121.26</ele>
        <time>2011-04-16T13:38:03Z</time>
      </trkpt>
      <trkpt lat="48.95959" lon="1.04982">
        <ele>121.26</ele>
        <time>2011-04-16T13:38:09Z</time>
      </trkpt>
      <trkpt lat="48.95953" lon="1.04984">
        <ele>121.26</ele>
        <time>2011-04-16T13:38:13Z</time>
      </trkpt>
      <trkpt lat="48.95945" lon="1.04976">
        <ele>121.26</ele>
        <time>2011-04-16T13:38:22Z</time>
      </trkpt>
      <trkpt lat="48.95938" lon="1.04981">
        <ele>121.74</ele>
        <time>2011-04-16T13:38:28Z</time>
      </trkpt>
      <trkpt lat="48.95933" lon="1.04979">
        <ele>121.74</ele>
        <time>2011-04-16T13:38:32Z</time>
      </trkpt>
      <trkpt lat="48.95926" lon="1.0498">
        <ele>122.22</ele>
        <time>2011-04-16T13:38:51Z</time>
      </trkpt>
      <trkpt lat="48.95912" lon="1.04977">
        <ele>122.71</ele>
        <time>2011-04-16T13:39:03Z</time>
      </trkpt>
      <trkpt lat="48.959" lon="1.04975">
        <ele>122.22</ele>
        <time>2011-04-16T13:39:11Z</time>
      </trkpt>
      <trkpt lat="48.95868" lon="1.04961">
        <ele>120.3</ele>
        <time>2011-04-16T13:39:22Z</time>
      </trkpt>
      <trkpt lat="48.95863" lon="1.04959">
        <ele>119.82</ele>
        <time>2011-04-16T13:39:24Z</time>
      </trkpt>
      <trkpt lat="48.95832" lon="1.04953">
        <ele>119.34</ele>
        <time>2011-04-16T13:39:35Z</time>
      </trkpt>
      <trkpt lat="48.95801" lon="1.04938">
        <ele>117.9</ele>
        <time>2011-04-16T13:39:46Z</time>
      </trkpt>
      <trkpt lat="48.95774" lon="1.04923">
        <ele>115.01</ele>
        <time>2011-04-16T13:39:55Z</time>
      </trkpt>
      <trkpt lat="48.95772" lon="1.04922">
        <ele>115.01</ele>
        <time>2011-04-16T13:39:56Z</time>
      </trkpt>
      <trkpt lat="48.95762" lon="1.04913">
        <ele>113.57</ele>
        <time>2011-04-16T13:40:01Z</time>
      </trkpt>
      <trkpt lat="48.95741" lon="1.04879">
        <ele>110.21</ele>
        <time>2011-04-16T13:40:11Z</time>
      </trkpt>
      <trkpt lat="48.95731" lon="1.04862">
        <ele>110.21</ele>
        <time>2011-04-16T13:40:22Z</time>
      </trkpt>
      <trkpt lat="48.95731" lon="1.04859">
        <ele>109.25</ele>
        <time>2011-04-16T13:40:26Z</time>
      </trkpt>
      <trkpt lat="48.95721" lon="1.04848">
        <ele>109.25</ele>
        <time>2011-04-16T13:40:40Z</time>
      </trkpt>
      <trkpt lat="48.95704" lon="1.04825">
        <ele>107.32</ele>
        <time>2011-04-16T13:40:52Z</time>
      </trkpt>
      <trkpt lat="48.95674" lon="1.0478">
        <ele>103.48</ele>
        <time>2011-04-16T13:41:03Z</time>
      </trkpt>
      <trkpt lat="48.95666" lon="1.04768">
        <ele>103</ele>
        <time>2011-04-16T13:41:05Z</time>
      </trkpt>
      <trkpt lat="48.95662" lon="1.04762">
        <ele>101.56</ele>
        <time>2011-04-16T13:41:06Z</time>
      </trkpt>
      <trkpt lat="48.95648" lon="1.04742">
        <ele>100.11</ele>
        <time>2011-04-16T13:41:09Z</time>
      </trkpt>
      <trkpt lat="48.95634" lon="1.04724">
        <ele>98.67</ele>
        <time>2011-04-16T13:41:12Z</time>
      </trkpt>
      <trkpt lat="48.95622" lon="1.04715">
        <ele>97.23</ele>
        <time>2011-04-16T13:41:14Z</time>
      </trkpt>
      <trkpt lat="48.95607" lon="1.04698">
        <ele>95.31</ele>
        <time>2011-04-16T13:41:17Z</time>
      </trkpt>
      <trkpt lat="48.9559" lon="1.04686">
        <ele>94.35</ele>
        <time>2011-04-16T13:41:20Z</time>
      </trkpt>
      <trkpt lat="48.95548" lon="1.04694">
        <ele>90.98</ele>
        <time>2011-04-16T13:41:28Z</time>
      </trkpt>
      <trkpt lat="48.95541" lon="1.04701">
        <ele>89.54</ele>
        <time>2011-04-16T13:41:31Z</time>
      </trkpt>
      <trkpt lat="48.95532" lon="1.04712">
        <ele>89.06</ele>
        <time>2011-04-16T13:41:37Z</time>
      </trkpt>
      <trkpt lat="48.95518" lon="1.04721">
        <ele>88.1</ele>
        <time>2011-04-16T13:41:47Z</time>
      </trkpt>
      <trkpt lat="48.95509" lon="1.04723">
        <ele>87.62</ele>
        <time>2011-04-16T13:41:53Z</time>
      </trkpt>
      <trkpt lat="48.95504" lon="1.04729">
        <ele>87.62</ele>
        <time>2011-04-16T13:41:57Z</time>
      </trkpt>
      <trkpt lat="48.95501" lon="1.04736">
        <ele>87.14</ele>
        <time>2011-04-16T13:42:14Z</time>
      </trkpt>
      <trkpt lat="48.95501" lon="1.04736">
        <ele>87.62</ele>
        <time>2011-04-16T13:42:36Z</time>
      </trkpt>
      <trkpt lat="48.955" lon="1.04748">
        <ele>88.1</ele>
        <time>2011-04-16T13:42:40Z</time>
      </trkpt>
      <trkpt lat="48.95472" lon="1.0483">
        <ele>88.1</ele>
        <time>2011-04-16T13:42:53Z</time>
      </trkpt>
      <trkpt lat="48.95456" lon="1.04865">
        <ele>88.58</ele>
        <time>2011-04-16T13:42:58Z</time>
      </trkpt>
      <trkpt lat="48.95431" lon="1.04943">
        <ele>88.1</ele>
        <time>2011-04-16T13:43:08Z</time>
      </trkpt>
      <trkpt lat="48.95395" lon="1.05053">
        <ele>89.06</ele>
        <time>2011-04-16T13:43:22Z</time>
      </trkpt>
      <trkpt lat="48.95394" lon="1.0506">
        <ele>89.06</ele>
        <time>2011-04-16T13:43:23Z</time>
      </trkpt>
      <trkpt lat="48.9539" lon="1.05081">
        <ele>88.58</ele>
        <time>2011-04-16T13:43:26Z</time>
      </trkpt>
      <trkpt lat="48.95385" lon="1.05101">
        <ele>88.58</ele>
        <time>2011-04-16T13:43:29Z</time>
      </trkpt>
      <trkpt lat="48.95378" lon="1.0512">
        <ele>88.1</ele>
        <time>2011-04-16T13:43:32Z</time>
      </trkpt>
      <trkpt lat="48.95368" lon="1.05181">
        <ele>88.1</ele>
        <time>2011-04-16T13:43:40Z</time>
      </trkpt>
      <trkpt lat="48.95349" lon="1.05232">
        <ele>87.62</ele>
        <time>2011-04-16T13:43:47Z</time>
      </trkpt>
      <trkpt lat="48.95318" lon="1.05313">
        <ele>87.62</ele>
        <time>2011-04-16T13:43:59Z</time>
      </trkpt>
      <trkpt lat="48.95288" lon="1.05378">
        <ele>87.62</ele>
        <time>2011-04-16T13:44:09Z</time>
      </trkpt>
      <trkpt lat="48.95262" lon="1.0544">
        <ele>88.58</ele>
        <time>2011-04-16T13:44:20Z</time>
      </trkpt>
      <trkpt lat="48.95255" lon="1.05464">
        <ele>89.06</ele>
        <time>2011-04-16T13:44:28Z</time>
      </trkpt>
      <trkpt lat="48.95251" lon="1.05486">
        <ele>91.46</ele>
        <time>2011-04-16T13:44:37Z</time>
      </trkpt>
      <trkpt lat="48.9525" lon="1.05487">
        <ele>91.46</ele>
        <time>2011-04-16T13:44:38Z</time>
      </trkpt>
      <trkpt lat="48.9525" lon="1.05488">
        <ele>91.46</ele>
        <time>2011-04-16T13:44:39Z</time>
      </trkpt>
      <trkpt lat="48.95246" lon="1.05504">
        <ele>93.39</ele>
        <time>2011-04-16T13:44:47Z</time>
      </trkpt>
      <trkpt lat="48.95244" lon="1.05514">
        <ele>94.35</ele>
        <time>2011-04-16T13:45:03Z</time>
      </trkpt>
      <trkpt lat="48.95242" lon="1.05532">
        <ele>95.31</ele>
        <time>2011-04-16T13:45:15Z</time>
      </trkpt>
      <trkpt lat="48.95238" lon="1.05548">
        <ele>96.27</ele>
        <time>2011-04-16T13:45:35Z</time>
      </trkpt>
      <trkpt lat="48.95236" lon="1.05553">
        <ele>96.27</ele>
        <time>2011-04-16T13:45:39Z</time>
      </trkpt>
      <trkpt lat="48.95229" lon="1.05562">
        <ele>94.83</ele>
        <time>2011-04-16T13:45:43Z</time>
      </trkpt>
      <trkpt lat="48.95215" lon="1.05571">
        <ele>92.9</ele>
        <time>2011-04-16T13:45:47Z</time>
      </trkpt>
      <trkpt lat="48.95211" lon="1.05574">
        <ele>92.9</ele>
        <time>2011-04-16T13:45:48Z</time>
      </trkpt>
      <trkpt lat="48.95185" lon="1.05596">
        <ele>90.02</ele>
        <time>2011-04-16T13:45:56Z</time>
      </trkpt>
      <trkpt lat="48.95164" lon="1.05619">
        <ele>90.02</ele>
        <time>2011-04-16T13:46:07Z</time>
      </trkpt>
      <trkpt lat="48.95159" lon="1.05624">
        <ele>90.5</ele>
        <time>2011-04-16T13:46:10Z</time>
      </trkpt>
      <trkpt lat="48.95143" lon="1.05634">
        <ele>90.98</ele>
        <time>2011-04-16T13:46:20Z</time>
      </trkpt>
      <trkpt lat="48.9512" lon="1.05645">
        <ele>90.98</ele>
        <time>2011-04-16T13:46:33Z</time>
      </trkpt>
      <trkpt lat="48.95094" lon="1.05644">
        <ele>90.5</ele>
        <time>2011-04-16T13:46:43Z</time>
      </trkpt>
      <trkpt lat="48.95059" lon="1.0564">
        <ele>89.06</ele>
        <time>2011-04-16T13:46:52Z</time>
      </trkpt>
      <trkpt lat="48.95038" lon="1.05639">
        <ele>89.54</ele>
        <time>2011-04-16T13:46:57Z</time>
      </trkpt>
      <trkpt lat="48.95026" lon="1.05638">
        <ele>89.54</ele>
        <time>2011-04-16T13:47:01Z</time>
      </trkpt>
      <trkpt lat="48.94992" lon="1.05621">
        <ele>91.46</ele>
        <time>2011-04-16T13:47:12Z</time>
      </trkpt>
      <trkpt lat="48.94954" lon="1.05613">
        <ele>93.39</ele>
        <time>2011-04-16T13:47:24Z</time>
      </trkpt>
      <trkpt lat="48.94936" lon="1.05614">
        <ele>96.75</ele>
        <time>2011-04-16T13:47:33Z</time>
      </trkpt>
      <trkpt lat="48.94928" lon="1.05614">
        <ele>97.23</ele>
        <time>2011-04-16T13:47:37Z</time>
      </trkpt>
      <trkpt lat="48.94906" lon="1.05612">
        <ele>101.08</ele>
        <time>2011-04-16T13:47:50Z</time>
      </trkpt>
      <trkpt lat="48.94883" lon="1.05602">
        <ele>101.08</ele>
        <time>2011-04-16T13:48:01Z</time>
      </trkpt>
      <trkpt lat="48.94858" lon="1.05581">
        <ele>103</ele>
        <time>2011-04-16T13:48:14Z</time>
      </trkpt>
      <trkpt lat="48.94825" lon="1.05556">
        <ele>102.52</ele>
        <time>2011-04-16T13:48:24Z</time>
      </trkpt>
      <trkpt lat="48.94799" lon="1.05532">
        <ele>103</ele>
        <time>2011-04-16T13:48:34Z</time>
      </trkpt>
      <trkpt lat="48.94779" lon="1.05517">
        <ele>103.48</ele>
        <time>2011-04-16T13:48:42Z</time>
      </trkpt>
      <trkpt lat="48.9477" lon="1.05505">
        <ele>103</ele>
        <time>2011-04-16T13:48:47Z</time>
      </trkpt>
      <trkpt lat="48.94759" lon="1.05484">
        <ele>103.48</ele>
        <time>2011-04-16T13:48:52Z</time>
      </trkpt>
      <trkpt lat="48.94728" lon="1.05459">
        <ele>102.52</ele>
        <time>2011-04-16T13:49:02Z</time>
      </trkpt>
      <trkpt lat="48.94701" lon="1.05431">
        <ele>103</ele>
        <time>2011-04-16T13:49:13Z</time>
      </trkpt>
      <trkpt lat="48.94676" lon="1.05402">
        <ele>102.52</ele>
        <time>2011-04-16T13:49:24Z</time>
      </trkpt>
      <trkpt lat="48.94663" lon="1.05379">
        <ele>103</ele>
        <time>2011-04-16T13:49:30Z</time>
      </trkpt>
      <trkpt lat="48.94644" lon="1.05346">
        <ele>103</ele>
        <time>2011-04-16T13:49:38Z</time>
      </trkpt>
      <trkpt lat="48.94623" lon="1.05304">
        <ele>103.96</ele>
        <time>2011-04-16T13:49:49Z</time>
      </trkpt>
      <trkpt lat="48.9461" lon="1.05273">
        <ele>104.44</ele>
        <time>2011-04-16T13:49:57Z</time>
      </trkpt>
      <trkpt lat="48.94593" lon="1.05226">
        <ele>104.92</ele>
        <time>2011-04-16T13:50:09Z</time>
      </trkpt>
      <trkpt lat="48.94587" lon="1.05216">
        <ele>105.88</ele>
        <time>2011-04-16T13:50:13Z</time>
      </trkpt>
      <trkpt lat="48.94582" lon="1.05198">
        <ele>106.36</ele>
        <time>2011-04-16T13:50:23Z</time>
      </trkpt>
      <trkpt lat="48.94575" lon="1.05182">
        <ele>105.88</ele>
        <time>2011-04-16T13:50:29Z</time>
      </trkpt>
      <trkpt lat="48.94566" lon="1.0518">
        <ele>105.88</ele>
        <time>2011-04-16T13:50:33Z</time>
      </trkpt>
      <trkpt lat="48.94566" lon="1.05185">
        <ele>106.84</ele>
        <time>2011-04-16T13:50:35Z</time>
      </trkpt>
      <trkpt lat="48.94569" lon="1.05203">
        <ele>108.29</ele>
        <time>2011-04-16T13:50:43Z</time>
      </trkpt>
      <trkpt lat="48.94564" lon="1.0521">
        <ele>109.73</ele>
        <time>2011-04-16T13:50:55Z</time>
      </trkpt>
      <trkpt lat="48.94561" lon="1.05211">
        <ele>111.17</ele>
        <time>2011-04-16T13:51:11Z</time>
      </trkpt>
      <trkpt lat="48.94562" lon="1.05217">
        <ele>110.21</ele>
        <time>2011-04-16T13:51:23Z</time>
      </trkpt>
      <trkpt lat="48.94565" lon="1.05234">
        <ele>110.21</ele>
        <time>2011-04-16T13:51:29Z</time>
      </trkpt>
      <trkpt lat="48.94565" lon="1.05247">
        <ele>111.65</ele>
        <time>2011-04-16T13:51:35Z</time>
      </trkpt>
      <trkpt lat="48.94561" lon="1.05271">
        <ele>112.61</ele>
        <time>2011-04-16T13:51:45Z</time>
      </trkpt>
      <trkpt lat="48.94561" lon="1.05279">
        <ele>111.65</ele>
        <time>2011-04-16T13:51:49Z</time>
      </trkpt>
      <trkpt lat="48.94564" lon="1.05303">
        <ele>114.05</ele>
        <time>2011-04-16T13:51:59Z</time>
      </trkpt>
      <trkpt lat="48.94566" lon="1.05326">
        <ele>114.53</ele>
        <time>2011-04-16T13:52:09Z</time>
      </trkpt>
      <trkpt lat="48.94567" lon="1.05329">
        <ele>115.01</ele>
        <time>2011-04-16T13:52:11Z</time>
      </trkpt>
      <trkpt lat="48.9457" lon="1.05358">
        <ele>117.42</ele>
        <time>2011-04-16T13:52:25Z</time>
      </trkpt>
      <trkpt lat="48.9457" lon="1.05362">
        <ele>117.9</ele>
        <time>2011-04-16T13:52:27Z</time>
      </trkpt>
      <trkpt lat="48.94571" lon="1.05367">
        <ele>118.38</ele>
        <time>2011-04-16T13:52:29Z</time>
      </trkpt>
      <trkpt lat="48.94572" lon="1.05394">
        <ele>120.3</ele>
        <time>2011-04-16T13:52:40Z</time>
      </trkpt>
      <trkpt lat="48.94571" lon="1.05407">
        <ele>121.26</ele>
        <time>2011-04-16T13:52:45Z</time>
      </trkpt>
      <trkpt lat="48.94581" lon="1.05443">
        <ele>123.19</ele>
        <time>2011-04-16T13:52:59Z</time>
      </trkpt>
      <trkpt lat="48.94584" lon="1.05459">
        <ele>123.67</ele>
        <time>2011-04-16T13:53:05Z</time>
      </trkpt>
      <trkpt lat="48.94587" lon="1.05484">
        <ele>124.15</ele>
        <time>2011-04-16T13:53:14Z</time>
      </trkpt>
      <trkpt lat="48.94584" lon="1.05509">
        <ele>125.11</ele>
        <time>2011-04-16T13:53:24Z</time>
      </trkpt>
      <trkpt lat="48.94583" lon="1.0552">
        <ele>125.11</ele>
        <time>2011-04-16T13:53:28Z</time>
      </trkpt>
      <trkpt lat="48.94573" lon="1.05542">
        <ele>126.07</ele>
        <time>2011-04-16T13:53:39Z</time>
      </trkpt>
      <trkpt lat="48.94568" lon="1.0557">
        <ele>125.11</ele>
        <time>2011-04-16T13:53:50Z</time>
      </trkpt>
      <trkpt lat="48.94566" lon="1.05581">
        <ele>125.59</ele>
        <time>2011-04-16T13:53:55Z</time>
      </trkpt>
      <trkpt lat="48.94565" lon="1.05602">
        <ele>125.59</ele>
        <time>2011-04-16T13:54:01Z</time>
      </trkpt>
      <trkpt lat="48.94555" lon="1.05635">
        <ele>126.07</ele>
        <time>2011-04-16T13:54:13Z</time>
      </trkpt>
      <trkpt lat="48.94551" lon="1.05665">
        <ele>127.03</ele>
        <time>2011-04-16T13:54:21Z</time>
      </trkpt>
      <trkpt lat="48.94547" lon="1.05692">
        <ele>127.51</ele>
        <time>2011-04-16T13:54:29Z</time>
      </trkpt>
      <trkpt lat="48.9454" lon="1.05718">
        <ele>127.03</ele>
        <time>2011-04-16T13:54:37Z</time>
      </trkpt>
      <trkpt lat="48.94533" lon="1.05759">
        <ele>128.95</ele>
        <time>2011-04-16T13:54:53Z</time>
      </trkpt>
      <trkpt lat="48.94531" lon="1.05795">
        <ele>128.95</ele>
        <time>2011-04-16T13:55:05Z</time>
      </trkpt>
      <trkpt lat="48.94529" lon="1.05832">
        <ele>130.4</ele>
        <time>2011-04-16T13:55:19Z</time>
      </trkpt>
      <trkpt lat="48.9453" lon="1.05851">
        <ele>130.4</ele>
        <time>2011-04-16T13:55:25Z</time>
      </trkpt>
      <trkpt lat="48.94531" lon="1.05887">
        <ele>131.84</ele>
        <time>2011-04-16T13:55:38Z</time>
      </trkpt>
      <trkpt lat="48.94531" lon="1.05897">
        <ele>131.84</ele>
        <time>2011-04-16T13:55:43Z</time>
      </trkpt>
      <trkpt lat="48.94531" lon="1.05914">
        <ele>132.8</ele>
        <time>2011-04-16T13:55:50Z</time>
      </trkpt>
      <trkpt lat="48.94533" lon="1.05928">
        <ele>132.8</ele>
        <time>2011-04-16T13:56:09Z</time>
      </trkpt>
      <trkpt lat="48.94532" lon="1.05931">
        <ele>133.28</ele>
        <time>2011-04-16T13:56:35Z</time>
      </trkpt>
      <trkpt lat="48.94533" lon="1.05938">
        <ele>134.24</ele>
        <time>2011-04-16T13:57:03Z</time>
      </trkpt>
      <trkpt lat="48.94536" lon="1.05985">
        <ele>134.24</ele>
        <time>2011-04-16T13:57:22Z</time>
      </trkpt>
      <trkpt lat="48.9453" lon="1.06023">
        <ele>135.68</ele>
        <time>2011-04-16T13:57:38Z</time>
      </trkpt>
      <trkpt lat="48.9453" lon="1.06067">
        <ele>138.09</ele>
        <time>2011-04-16T13:57:54Z</time>
      </trkpt>
      <trkpt lat="48.9453" lon="1.06118">
        <ele>140.01</ele>
        <time>2011-04-16T13:58:12Z</time>
      </trkpt>
      <trkpt lat="48.94527" lon="1.06181">
        <ele>140.97</ele>
        <time>2011-04-16T13:58:30Z</time>
      </trkpt>
      <trkpt lat="48.94523" lon="1.06216">
        <ele>141.45</ele>
        <time>2011-04-16T13:58:40Z</time>
      </trkpt>
      <trkpt lat="48.94519" lon="1.06237">
        <ele>141.45</ele>
        <time>2011-04-16T13:58:51Z</time>
      </trkpt>
      <trkpt lat="48.94515" lon="1.06248">
        <ele>141.45</ele>
        <time>2011-04-16T13:59:06Z</time>
      </trkpt>
      <trkpt lat="48.94517" lon="1.06249">
        <ele>141.93</ele>
        <time>2011-04-16T14:00:21Z</time>
      </trkpt>
      <trkpt lat="48.94519" lon="1.06247">
        <ele>142.41</ele>
        <time>2011-04-16T14:03:20Z</time>
      </trkpt>
      <trkpt lat="48.94519" lon="1.06248">
        <ele>141.45</ele>
        <time>2011-04-16T14:05:01Z</time>
      </trkpt>
      <trkpt lat="48.94518" lon="1.06247">
        <ele>142.89</ele>
        <time>2011-04-16T14:08:13Z</time>
      </trkpt>
      <trkpt lat="48.94514" lon="1.0624">
        <ele>143.85</ele>
        <time>2011-04-16T14:08:41Z</time>
      </trkpt>
      <trkpt lat="48.94516" lon="1.06242">
        <ele>143.85</ele>
        <time>2011-04-16T14:08:55Z</time>
      </trkpt>
      <trkpt lat="48.94517" lon="1.06247">
        <ele>143.37</ele>
        <time>2011-04-16T14:09:12Z</time>
      </trkpt>
      <trkpt lat="48.94517" lon="1.06255">
        <ele>143.37</ele>
        <time>2011-04-16T14:09:31Z</time>
      </trkpt>
      <trkpt lat="48.94518" lon="1.0626">
        <ele>143.37</ele>
        <time>2011-04-16T14:09:33Z</time>
      </trkpt>
      <trkpt lat="48.94511" lon="1.06312">
        <ele>143.37</ele>
        <time>2011-04-16T14:09:49Z</time>
      </trkpt>
      <trkpt lat="48.9451" lon="1.06364">
        <ele>143.85</ele>
        <time>2011-04-16T14:10:01Z</time>
      </trkpt>
      <trkpt lat="48.94511" lon="1.06418">
        <ele>143.37</ele>
        <time>2011-04-16T14:10:12Z</time>
      </trkpt>
      <trkpt lat="48.9451" lon="1.06474">
        <ele>143.37</ele>
        <time>2011-04-16T14:10:24Z</time>
      </trkpt>
      <trkpt lat="48.94506" lon="1.06511">
        <ele>143.85</ele>
        <time>2011-04-16T14:10:32Z</time>
      </trkpt>
      <trkpt lat="48.94518" lon="1.06515">
        <ele>144.34</ele>
        <time>2011-04-16T14:10:41Z</time>
      </trkpt>
      <trkpt lat="48.94559" lon="1.06488">
        <ele>144.34</ele>
        <time>2011-04-16T14:10:54Z</time>
      </trkpt>
      <trkpt lat="48.94587" lon="1.06469">
        <ele>143.37</ele>
        <time>2011-04-16T14:11:01Z</time>
      </trkpt>
      <trkpt lat="48.94648" lon="1.06429">
        <ele>144.34</ele>
        <time>2011-04-16T14:11:16Z</time>
      </trkpt>
      <trkpt lat="48.9466" lon="1.06421">
        <ele>144.82</ele>
        <time>2011-04-16T14:11:19Z</time>
      </trkpt>
      <trkpt lat="48.94709" lon="1.06387">
        <ele>144.82</ele>
        <time>2011-04-16T14:11:30Z</time>
      </trkpt>
      <trkpt lat="48.94726" lon="1.06374">
        <ele>144.34</ele>
        <time>2011-04-16T14:11:34Z</time>
      </trkpt>
      <trkpt lat="48.94755" lon="1.06354">
        <ele>144.34</ele>
        <time>2011-04-16T14:11:39Z</time>
      </trkpt>
      <trkpt lat="48.9477" lon="1.06359">
        <ele>143.85</ele>
        <time>2011-04-16T14:11:43Z</time>
      </trkpt>
      <trkpt lat="48.94812" lon="1.06394">
        <ele>143.37</ele>
        <time>2011-04-16T14:11:52Z</time>
      </trkpt>
      <trkpt lat="48.94829" lon="1.06405">
        <ele>141.93</ele>
        <time>2011-04-16T14:11:55Z</time>
      </trkpt>
      <trkpt lat="48.94895" lon="1.06452">
        <ele>141.45</ele>
        <time>2011-04-16T14:12:06Z</time>
      </trkpt>
      <trkpt lat="48.94928" lon="1.06474">
        <ele>140.49</ele>
        <time>2011-04-16T14:12:14Z</time>
      </trkpt>
      <trkpt lat="48.94947" lon="1.06482">
        <ele>140.97</ele>
        <time>2011-04-16T14:12:18Z</time>
      </trkpt>
      <trkpt lat="48.94953" lon="1.06486">
        <ele>141.45</ele>
        <time>2011-04-16T14:12:20Z</time>
      </trkpt>
      <trkpt lat="48.9496" lon="1.06489">
        <ele>140.49</ele>
        <time>2011-04-16T14:12:22Z</time>
      </trkpt>
      <trkpt lat="48.94976" lon="1.065">
        <ele>140.97</ele>
        <time>2011-04-16T14:12:27Z</time>
      </trkpt>
      <trkpt lat="48.95017" lon="1.06539">
        <ele>140.97</ele>
        <time>2011-04-16T14:12:39Z</time>
      </trkpt>
      <trkpt lat="48.95029" lon="1.06546">
        <ele>140.49</ele>
        <time>2011-04-16T14:12:42Z</time>
      </trkpt>
      <trkpt lat="48.95069" lon="1.06576">
        <ele>140.97</ele>
        <time>2011-04-16T14:12:52Z</time>
      </trkpt>
      <trkpt lat="48.95102" lon="1.06602">
        <ele>140.49</ele>
        <time>2011-04-16T14:13:01Z</time>
      </trkpt>
      <trkpt lat="48.95131" lon="1.06622">
        <ele>141.93</ele>
        <time>2011-04-16T14:13:09Z</time>
      </trkpt>
      <trkpt lat="48.95164" lon="1.06646">
        <ele>141.93</ele>
        <time>2011-04-16T14:13:19Z</time>
      </trkpt>
      <trkpt lat="48.95199" lon="1.06676">
        <ele>142.89</ele>
        <time>2011-04-16T14:13:30Z</time>
      </trkpt>
      <trkpt lat="48.95234" lon="1.06704">
        <ele>143.37</ele>
        <time>2011-04-16T14:13:41Z</time>
      </trkpt>
      <trkpt lat="48.95264" lon="1.06727">
        <ele>143.85</ele>
        <time>2011-04-16T14:13:51Z</time>
      </trkpt>
      <trkpt lat="48.95273" lon="1.06732">
        <ele>143.37</ele>
        <time>2011-04-16T14:13:55Z</time>
      </trkpt>
      <trkpt lat="48.95282" lon="1.06737">
        <ele>143.37</ele>
        <time>2011-04-16T14:13:59Z</time>
      </trkpt>
      <trkpt lat="48.95288" lon="1.06742">
        <ele>143.85</ele>
        <time>2011-04-16T14:14:02Z</time>
      </trkpt>
      <trkpt lat="48.9529" lon="1.06748">
        <ele>143.85</ele>
        <time>2011-04-16T14:14:06Z</time>
      </trkpt>
      <trkpt lat="48.95295" lon="1.06747">
        <ele>144.34</ele>
        <time>2011-04-16T14:14:08Z</time>
      </trkpt>
      <trkpt lat="48.95319" lon="1.06764">
        <ele>144.34</ele>
        <time>2011-04-16T14:14:20Z</time>
      </trkpt>
      <trkpt lat="48.9533" lon="1.0678">
        <ele>145.3</ele>
        <time>2011-04-16T14:14:30Z</time>
      </trkpt>
      <trkpt lat="48.95332" lon="1.06784">
        <ele>144.82</ele>
        <time>2011-04-16T14:14:32Z</time>
      </trkpt>
      <trkpt lat="48.95341" lon="1.06785">
        <ele>144.82</ele>
        <time>2011-04-16T14:14:36Z</time>
      </trkpt>
      <trkpt lat="48.9538" lon="1.06765">
        <ele>145.78</ele>
        <time>2011-04-16T14:14:49Z</time>
      </trkpt>
      <trkpt lat="48.95468" lon="1.06717">
        <ele>147.22</ele>
        <time>2011-04-16T14:15:13Z</time>
      </trkpt>
      <trkpt lat="48.95569" lon="1.06672">
        <ele>147.22</ele>
        <time>2011-04-16T14:15:35Z</time>
      </trkpt>
      <trkpt lat="48.95694" lon="1.06626">
        <ele>147.7</ele>
        <time>2011-04-16T14:15:59Z</time>
      </trkpt>
      <trkpt lat="48.95741" lon="1.06606">
        <ele>147.7</ele>
        <time>2011-04-16T14:16:08Z</time>
      </trkpt>
      <trkpt lat="48.95757" lon="1.06596">
        <ele>148.18</ele>
        <time>2011-04-16T14:16:11Z</time>
      </trkpt>
      <trkpt lat="48.95793" lon="1.066">
        <ele>145.78</ele>
        <time>2011-04-16T14:16:18Z</time>
      </trkpt>
      <trkpt lat="48.95854" lon="1.06692">
        <ele>144.34</ele>
        <time>2011-04-16T14:16:33Z</time>
      </trkpt>
      <trkpt lat="48.95921" lon="1.06758">
        <ele>142.89</ele>
        <time>2011-04-16T14:16:46Z</time>
      </trkpt>
      <trkpt lat="48.95974" lon="1.06809">
        <ele>140.49</ele>
        <time>2011-04-16T14:16:56Z</time>
      </trkpt>
      <trkpt lat="48.96085" lon="1.0692">
        <ele>137.13</ele>
        <time>2011-04-16T14:17:16Z</time>
      </trkpt>
      <trkpt lat="48.96174" lon="1.07016">
        <ele>133.76</ele>
        <time>2011-04-16T14:17:31Z</time>
      </trkpt>
      <trkpt lat="48.96309" lon="1.07172">
        <ele>131.84</ele>
        <time>2011-04-16T14:17:56Z</time>
      </trkpt>
      <trkpt lat="48.964" lon="1.07318">
        <ele>128.95</ele>
        <time>2011-04-16T14:18:17Z</time>
      </trkpt>
      <trkpt lat="48.96476" lon="1.07499">
        <ele>125.59</ele>
        <time>2011-04-16T14:18:38Z</time>
      </trkpt>
      <trkpt lat="48.9651" lon="1.07579">
        <ele>122.22</ele>
        <time>2011-04-16T14:18:46Z</time>
      </trkpt>
      <trkpt lat="48.96533" lon="1.07633">
        <ele>119.34</ele>
        <time>2011-04-16T14:18:51Z</time>
      </trkpt>
      <trkpt lat="48.96538" lon="1.07644">
        <ele>119.82</ele>
        <time>2011-04-16T14:18:52Z</time>
      </trkpt>
      <trkpt lat="48.96581" lon="1.07731">
        <ele>116.94</ele>
        <time>2011-04-16T14:19:00Z</time>
      </trkpt>
      <trkpt lat="48.96639" lon="1.07827">
        <ele>115.98</ele>
        <time>2011-04-16T14:19:10Z</time>
      </trkpt>
      <trkpt lat="48.96668" lon="1.0785">
        <ele>118.38</ele>
        <time>2011-04-16T14:19:15Z</time>
      </trkpt>
      <trkpt lat="48.96682" lon="1.07854">
        <ele>120.3</ele>
        <time>2011-04-16T14:19:19Z</time>
      </trkpt>
      <trkpt lat="48.96696" lon="1.07853">
        <ele>123.19</ele>
        <time>2011-04-16T14:19:25Z</time>
      </trkpt>
      <trkpt lat="48.96699" lon="1.07854">
        <ele>123.67</ele>
        <time>2011-04-16T14:19:26Z</time>
      </trkpt>
      <trkpt lat="48.96718" lon="1.07854">
        <ele>126.07</ele>
        <time>2011-04-16T14:19:36Z</time>
      </trkpt>
      <trkpt lat="48.96722" lon="1.07854">
        <ele>127.03</ele>
        <time>2011-04-16T14:19:38Z</time>
      </trkpt>
      <trkpt lat="48.96743" lon="1.07854">
        <ele>128.95</ele>
        <time>2011-04-16T14:19:50Z</time>
      </trkpt>
      <trkpt lat="48.96754" lon="1.07857">
        <ele>130.88</ele>
        <time>2011-04-16T14:19:57Z</time>
      </trkpt>
      <trkpt lat="48.96776" lon="1.07861">
        <ele>134.24</ele>
        <time>2011-04-16T14:20:12Z</time>
      </trkpt>
      <trkpt lat="48.9678" lon="1.07864">
        <ele>133.76</ele>
        <time>2011-04-16T14:20:15Z</time>
      </trkpt>
      <trkpt lat="48.96786" lon="1.07868">
        <ele>135.2</ele>
        <time>2011-04-16T14:20:20Z</time>
      </trkpt>
      <trkpt lat="48.96807" lon="1.07879">
        <ele>136.16</ele>
        <time>2011-04-16T14:20:37Z</time>
      </trkpt>
      <trkpt lat="48.96818" lon="1.07885">
        <ele>137.13</ele>
        <time>2011-04-16T14:20:45Z</time>
      </trkpt>
      <trkpt lat="48.96836" lon="1.07902">
        <ele>137.61</ele>
        <time>2011-04-16T14:20:57Z</time>
      </trkpt>
      <trkpt lat="48.96857" lon="1.07924">
        <ele>137.61</ele>
        <time>2011-04-16T14:21:09Z</time>
      </trkpt>
      <trkpt lat="48.96871" lon="1.07943">
        <ele>138.09</ele>
        <time>2011-04-16T14:21:18Z</time>
      </trkpt>
      <trkpt lat="48.96879" lon="1.07952">
        <ele>139.05</ele>
        <time>2011-04-16T14:21:23Z</time>
      </trkpt>
      <trkpt lat="48.96885" lon="1.07954">
        <ele>138.57</ele>
        <time>2011-04-16T14:21:27Z</time>
      </trkpt>
      <trkpt lat="48.96892" lon="1.07943">
        <ele>138.09</ele>
        <time>2011-04-16T14:21:32Z</time>
      </trkpt>
      <trkpt lat="48.96898" lon="1.07933">
        <ele>138.57</ele>
        <time>2011-04-16T14:21:38Z</time>
      </trkpt>
      <trkpt lat="48.96903" lon="1.07929">
        <ele>138.57</ele>
        <time>2011-04-16T14:21:42Z</time>
      </trkpt>
      <trkpt lat="48.96909" lon="1.07933">
        <ele>138.09</ele>
        <time>2011-04-16T14:21:46Z</time>
      </trkpt>
      <trkpt lat="48.96921" lon="1.07923">
        <ele>138.09</ele>
        <time>2011-04-16T14:21:51Z</time>
      </trkpt>
      <trkpt lat="48.96948" lon="1.079">
        <ele>137.13</ele>
        <time>2011-04-16T14:22:02Z</time>
      </trkpt>
      <trkpt lat="48.96972" lon="1.07876">
        <ele>137.61</ele>
        <time>2011-04-16T14:22:12Z</time>
      </trkpt>
      <trkpt lat="48.96998" lon="1.07851">
        <ele>138.09</ele>
        <time>2011-04-16T14:22:22Z</time>
      </trkpt>
      <trkpt lat="48.97028" lon="1.07824">
        <ele>139.53</ele>
        <time>2011-04-16T14:22:32Z</time>
      </trkpt>
      <trkpt lat="48.9706" lon="1.07792">
        <ele>138.57</ele>
        <time>2011-04-16T14:22:43Z</time>
      </trkpt>
      <trkpt lat="48.97105" lon="1.07748">
        <ele>139.05</ele>
        <time>2011-04-16T14:22:56Z</time>
      </trkpt>
      <trkpt lat="48.97136" lon="1.07721">
        <ele>138.57</ele>
        <time>2011-04-16T14:23:05Z</time>
      </trkpt>
      <trkpt lat="48.97172" lon="1.07686">
        <ele>139.05</ele>
        <time>2011-04-16T14:23:14Z</time>
      </trkpt>
      <trkpt lat="48.9719" lon="1.07665">
        <ele>139.05</ele>
        <time>2011-04-16T14:23:19Z</time>
      </trkpt>
      <trkpt lat="48.97204" lon="1.07653">
        <ele>138.57</ele>
        <time>2011-04-16T14:23:22Z</time>
      </trkpt>
      <trkpt lat="48.97219" lon="1.07642">
        <ele>138.09</ele>
        <time>2011-04-16T14:23:25Z</time>
      </trkpt>
      <trkpt lat="48.97232" lon="1.0763">
        <ele>139.05</ele>
        <time>2011-04-16T14:23:28Z</time>
      </trkpt>
      <trkpt lat="48.97251" lon="1.07605">
        <ele>139.05</ele>
        <time>2011-04-16T14:23:33Z</time>
      </trkpt>
      <trkpt lat="48.97307" lon="1.07554">
        <ele>138.57</ele>
        <time>2011-04-16T14:23:45Z</time>
      </trkpt>
      <trkpt lat="48.97312" lon="1.0755">
        <ele>139.05</ele>
        <time>2011-04-16T14:23:46Z</time>
      </trkpt>
      <trkpt lat="48.97355" lon="1.07505">
        <ele>139.53</ele>
        <time>2011-04-16T14:23:56Z</time>
      </trkpt>
      <trkpt lat="48.97365" lon="1.07496">
        <ele>139.05</ele>
        <time>2011-04-16T14:23:58Z</time>
      </trkpt>
      <trkpt lat="48.9738" lon="1.07483">
        <ele>139.05</ele>
        <time>2011-04-16T14:24:01Z</time>
      </trkpt>
      <trkpt lat="48.9741" lon="1.0745">
        <ele>138.57</ele>
        <time>2011-04-16T14:24:08Z</time>
      </trkpt>
      <trkpt lat="48.97418" lon="1.07441">
        <ele>139.05</ele>
        <time>2011-04-16T14:24:10Z</time>
      </trkpt>
      <trkpt lat="48.9744" lon="1.0742">
        <ele>138.57</ele>
        <time>2011-04-16T14:24:15Z</time>
      </trkpt>
      <trkpt lat="48.9745" lon="1.07411">
        <ele>139.05</ele>
        <time>2011-04-16T14:24:17Z</time>
      </trkpt>
      <trkpt lat="48.97481" lon="1.07382">
        <ele>139.53</ele>
        <time>2011-04-16T14:24:23Z</time>
      </trkpt>
      <trkpt lat="48.97522" lon="1.07343">
        <ele>139.05</ele>
        <time>2011-04-16T14:24:34Z</time>
      </trkpt>
      <trkpt lat="48.97555" lon="1.07312">
        <ele>138.57</ele>
        <time>2011-04-16T14:24:43Z</time>
      </trkpt>
      <trkpt lat="48.97576" lon="1.07293">
        <ele>138.57</ele>
        <time>2011-04-16T14:24:48Z</time>
      </trkpt>
      <trkpt lat="48.9761" lon="1.07259">
        <ele>137.61</ele>
        <time>2011-04-16T14:24:56Z</time>
      </trkpt>
      <trkpt lat="48.97638" lon="1.07229">
        <ele>137.13</ele>
        <time>2011-04-16T14:25:02Z</time>
      </trkpt>
      <trkpt lat="48.97648" lon="1.07219">
        <ele>137.61</ele>
        <time>2011-04-16T14:25:04Z</time>
      </trkpt>
      <trkpt lat="48.97666" lon="1.07203">
        <ele>137.61</ele>
        <time>2011-04-16T14:25:08Z</time>
      </trkpt>
      <trkpt lat="48.97718" lon="1.07152">
        <ele>136.64</ele>
        <time>2011-04-16T14:25:19Z</time>
      </trkpt>
      <trkpt lat="48.97733" lon="1.07135">
        <ele>134.72</ele>
        <time>2011-04-16T14:25:22Z</time>
      </trkpt>
      <trkpt lat="48.97745" lon="1.07125">
        <ele>133.28</ele>
        <time>2011-04-16T14:25:24Z</time>
      </trkpt>
      <trkpt lat="48.97751" lon="1.0712">
        <ele>133.28</ele>
        <time>2011-04-16T14:25:25Z</time>
      </trkpt>
      <trkpt lat="48.97796" lon="1.0707">
        <ele>135.2</ele>
        <time>2011-04-16T14:25:33Z</time>
      </trkpt>
      <trkpt lat="48.97818" lon="1.07051">
        <ele>134.72</ele>
        <time>2011-04-16T14:25:38Z</time>
      </trkpt>
      <trkpt lat="48.97825" lon="1.07038">
        <ele>136.16</ele>
        <time>2011-04-16T14:25:41Z</time>
      </trkpt>
      <trkpt lat="48.97853" lon="1.06998">
        <ele>137.13</ele>
        <time>2011-04-16T14:25:51Z</time>
      </trkpt>
      <trkpt lat="48.97858" lon="1.06988">
        <ele>137.13</ele>
        <time>2011-04-16T14:25:53Z</time>
      </trkpt>
      <trkpt lat="48.97878" lon="1.06951">
        <ele>137.61</ele>
        <time>2011-04-16T14:26:01Z</time>
      </trkpt>
      <trkpt lat="48.97889" lon="1.06925">
        <ele>138.09</ele>
        <time>2011-04-16T14:26:06Z</time>
      </trkpt>
      <trkpt lat="48.97912" lon="1.06884">
        <ele>138.09</ele>
        <time>2011-04-16T14:26:14Z</time>
      </trkpt>
      <trkpt lat="48.9792" lon="1.06868">
        <ele>139.05</ele>
        <time>2011-04-16T14:26:17Z</time>
      </trkpt>
      <trkpt lat="48.97929" lon="1.06851">
        <ele>138.57</ele>
        <time>2011-04-16T14:26:20Z</time>
      </trkpt>
      <trkpt lat="48.97945" lon="1.06823">
        <ele>139.05</ele>
        <time>2011-04-16T14:26:25Z</time>
      </trkpt>
      <trkpt lat="48.97955" lon="1.06807">
        <ele>139.05</ele>
        <time>2011-04-16T14:26:28Z</time>
      </trkpt>
      <trkpt lat="48.97967" lon="1.06782">
        <ele>139.05</ele>
        <time>2011-04-16T14:26:32Z</time>
      </trkpt>
      <trkpt lat="48.97978" lon="1.0676">
        <ele>139.53</ele>
        <time>2011-04-16T14:26:36Z</time>
      </trkpt>
      <trkpt lat="48.97993" lon="1.06726">
        <ele>139.53</ele>
        <time>2011-04-16T14:26:41Z</time>
      </trkpt>
      <trkpt lat="48.98008" lon="1.06694">
        <ele>139.53</ele>
        <time>2011-04-16T14:26:46Z</time>
      </trkpt>
      <trkpt lat="48.98028" lon="1.06657">
        <ele>139.53</ele>
        <time>2011-04-16T14:26:52Z</time>
      </trkpt>
      <trkpt lat="48.98048" lon="1.06618">
        <ele>138.57</ele>
        <time>2011-04-16T14:26:58Z</time>
      </trkpt>
      <trkpt lat="48.98054" lon="1.06604">
        <ele>139.53</ele>
        <time>2011-04-16T14:27:00Z</time>
      </trkpt>
      <trkpt lat="48.98073" lon="1.06573">
        <ele>138.09</ele>
        <time>2011-04-16T14:27:05Z</time>
      </trkpt>
      <trkpt lat="48.98087" lon="1.06544">
        <ele>140.01</ele>
        <time>2011-04-16T14:27:09Z</time>
      </trkpt>
      <trkpt lat="48.98094" lon="1.06532">
        <ele>138.57</ele>
        <time>2011-04-16T14:27:11Z</time>
      </trkpt>
      <trkpt lat="48.98112" lon="1.06498">
        <ele>137.13</ele>
        <time>2011-04-16T14:27:16Z</time>
      </trkpt>
      <trkpt lat="48.9814" lon="1.06437">
        <ele>136.64</ele>
        <time>2011-04-16T14:27:24Z</time>
      </trkpt>
      <trkpt lat="48.98156" lon="1.06406">
        <ele>136.16</ele>
        <time>2011-04-16T14:27:28Z</time>
      </trkpt>
      <trkpt lat="48.98167" lon="1.06382">
        <ele>136.16</ele>
        <time>2011-04-16T14:27:31Z</time>
      </trkpt>
      <trkpt lat="48.98199" lon="1.06315">
        <ele>134.72</ele>
        <time>2011-04-16T14:27:39Z</time>
      </trkpt>
      <trkpt lat="48.9823" lon="1.0625">
        <ele>134.72</ele>
        <time>2011-04-16T14:27:47Z</time>
      </trkpt>
      <trkpt lat="48.98234" lon="1.06241">
        <ele>134.24</ele>
        <time>2011-04-16T14:27:48Z</time>
      </trkpt>
      <trkpt lat="48.98271" lon="1.06164">
        <ele>134.72</ele>
        <time>2011-04-16T14:27:58Z</time>
      </trkpt>
      <trkpt lat="48.98311" lon="1.06089">
        <ele>134.24</ele>
        <time>2011-04-16T14:28:09Z</time>
      </trkpt>
      <trkpt lat="48.98331" lon="1.06049">
        <ele>133.76</ele>
        <time>2011-04-16T14:28:15Z</time>
      </trkpt>
      <trkpt lat="48.98367" lon="1.05972">
        <ele>133.28</ele>
        <time>2011-04-16T14:28:26Z</time>
      </trkpt>
      <trkpt lat="48.98374" lon="1.05959">
        <ele>133.28</ele>
        <time>2011-04-16T14:28:28Z</time>
      </trkpt>
      <trkpt lat="48.984" lon="1.05912">
        <ele>131.84</ele>
        <time>2011-04-16T14:28:35Z</time>
      </trkpt>
      <trkpt lat="48.98416" lon="1.05875">
        <ele>132.8</ele>
        <time>2011-04-16T14:28:40Z</time>
      </trkpt>
      <trkpt lat="48.98433" lon="1.05841">
        <ele>132.8</ele>
        <time>2011-04-16T14:28:45Z</time>
      </trkpt>
      <trkpt lat="48.98447" lon="1.05814">
        <ele>132.32</ele>
        <time>2011-04-16T14:28:49Z</time>
      </trkpt>
      <trkpt lat="48.98467" lon="1.05775">
        <ele>132.32</ele>
        <time>2011-04-16T14:28:55Z</time>
      </trkpt>
      <trkpt lat="48.98487" lon="1.05748">
        <ele>132.32</ele>
        <time>2011-04-16T14:29:00Z</time>
      </trkpt>
      <trkpt lat="48.98508" lon="1.05731">
        <ele>131.36</ele>
        <time>2011-04-16T14:29:05Z</time>
      </trkpt>
      <trkpt lat="48.98537" lon="1.05711">
        <ele>131.84</ele>
        <time>2011-04-16T14:29:12Z</time>
      </trkpt>
      <trkpt lat="48.98568" lon="1.05687">
        <ele>130.88</ele>
        <time>2011-04-16T14:29:20Z</time>
      </trkpt>
      <trkpt lat="48.98588" lon="1.05667">
        <ele>130.4</ele>
        <time>2011-04-16T14:29:25Z</time>
      </trkpt>
      <trkpt lat="48.98605" lon="1.05652">
        <ele>129.92</ele>
        <time>2011-04-16T14:29:29Z</time>
      </trkpt>
      <trkpt lat="48.9861" lon="1.05643">
        <ele>129.92</ele>
        <time>2011-04-16T14:29:31Z</time>
      </trkpt>
      <trkpt lat="48.98616" lon="1.05634">
        <ele>129.43</ele>
        <time>2011-04-16T14:29:33Z</time>
      </trkpt>
      <trkpt lat="48.98659" lon="1.05598">
        <ele>128.47</ele>
        <time>2011-04-16T14:29:43Z</time>
      </trkpt>
      <trkpt lat="48.9869" lon="1.05584">
        <ele>127.51</ele>
        <time>2011-04-16T14:29:51Z</time>
      </trkpt>
      <trkpt lat="48.98725" lon="1.05575">
        <ele>126.55</ele>
        <time>2011-04-16T14:30:01Z</time>
      </trkpt>
      <trkpt lat="48.98756" lon="1.0559">
        <ele>124.63</ele>
        <time>2011-04-16T14:30:09Z</time>
      </trkpt>
      <trkpt lat="48.98775" lon="1.05592">
        <ele>123.67</ele>
        <time>2011-04-16T14:30:12Z</time>
      </trkpt>
      <trkpt lat="48.98863" lon="1.05617">
        <ele>120.3</ele>
        <time>2011-04-16T14:30:28Z</time>
      </trkpt>
      <trkpt lat="48.9888" lon="1.05628">
        <ele>119.82</ele>
        <time>2011-04-16T14:30:34Z</time>
      </trkpt>
      <trkpt lat="48.98883" lon="1.0565">
        <ele>120.3</ele>
        <time>2011-04-16T14:30:39Z</time>
      </trkpt>
      <trkpt lat="48.98873" lon="1.05693">
        <ele>123.19</ele>
        <time>2011-04-16T14:30:49Z</time>
      </trkpt>
      <trkpt lat="48.98862" lon="1.05761">
        <ele>123.19</ele>
        <time>2011-04-16T14:31:02Z</time>
      </trkpt>
      <trkpt lat="48.98861" lon="1.05793">
        <ele>124.15</ele>
        <time>2011-04-16T14:31:09Z</time>
      </trkpt>
      <trkpt lat="48.98857" lon="1.05843">
        <ele>124.63</ele>
        <time>2011-04-16T14:31:19Z</time>
      </trkpt>
      <trkpt lat="48.98838" lon="1.05872">
        <ele>125.59</ele>
        <time>2011-04-16T14:31:28Z</time>
      </trkpt>
      <trkpt lat="48.98812" lon="1.059">
        <ele>126.07</ele>
        <time>2011-04-16T14:31:41Z</time>
      </trkpt>
      <trkpt lat="48.98802" lon="1.05917">
        <ele>127.03</ele>
        <time>2011-04-16T14:31:47Z</time>
      </trkpt>
      <trkpt lat="48.98798" lon="1.05922">
        <ele>127.51</ele>
        <time>2011-04-16T14:31:51Z</time>
      </trkpt>
      <trkpt lat="48.98786" lon="1.05948">
        <ele>127.51</ele>
        <time>2011-04-16T14:32:02Z</time>
      </trkpt>
      <trkpt lat="48.98784" lon="1.05949">
        <ele>126.07</ele>
        <time>2011-04-16T14:32:05Z</time>
      </trkpt>
      <trkpt lat="48.98782" lon="1.05959">
        <ele>127.51</ele>
        <time>2011-04-16T14:32:11Z</time>
      </trkpt>
      <trkpt lat="48.98776" lon="1.05982">
        <ele>127.99</ele>
        <time>2011-04-16T14:32:24Z</time>
      </trkpt>
      <trkpt lat="48.98775" lon="1.05992">
        <ele>128.47</ele>
        <time>2011-04-16T14:32:29Z</time>
      </trkpt>
      <trkpt lat="48.98773" lon="1.05999">
        <ele>127.99</ele>
        <time>2011-04-16T14:32:39Z</time>
      </trkpt>
      <trkpt lat="48.98771" lon="1.06005">
        <ele>128.47</ele>
        <time>2011-04-16T14:32:41Z</time>
      </trkpt>
      <trkpt lat="48.98756" lon="1.06049">
        <ele>127.99</ele>
        <time>2011-04-16T14:32:56Z</time>
      </trkpt>
      <trkpt lat="48.98745" lon="1.06084">
        <ele>128.47</ele>
        <time>2011-04-16T14:33:09Z</time>
      </trkpt>
      <trkpt lat="48.98735" lon="1.06114">
        <ele>128.47</ele>
        <time>2011-04-16T14:33:22Z</time>
      </trkpt>
      <trkpt lat="48.98738" lon="1.06122">
        <ele>128.47</ele>
        <time>2011-04-16T14:33:32Z</time>
      </trkpt>
      <trkpt lat="48.98738" lon="1.06123">
        <ele>128.95</ele>
        <time>2011-04-16T14:33:34Z</time>
      </trkpt>
      <trkpt lat="48.98736" lon="1.06142">
        <ele>128.95</ele>
        <time>2011-04-16T14:33:45Z</time>
      </trkpt>
      <trkpt lat="48.98734" lon="1.06142">
        <ele>129.43</ele>
        <time>2011-04-16T14:33:46Z</time>
      </trkpt>
      <trkpt lat="48.9873" lon="1.06141">
        <ele>128.95</ele>
        <time>2011-04-16T14:33:49Z</time>
      </trkpt>
      <trkpt lat="48.98727" lon="1.06149">
        <ele>129.43</ele>
        <time>2011-04-16T14:33:53Z</time>
      </trkpt>
      <trkpt lat="48.98726" lon="1.06155">
        <ele>128.95</ele>
        <time>2011-04-16T14:33:55Z</time>
      </trkpt>
      <trkpt lat="48.98724" lon="1.06165">
        <ele>128.95</ele>
        <time>2011-04-16T14:34:02Z</time>
      </trkpt>
      <trkpt lat="48.98721" lon="1.06173">
        <ele>129.43</ele>
        <time>2011-04-16T14:34:06Z</time>
      </trkpt>
      <trkpt lat="48.98711" lon="1.06214">
        <ele>129.43</ele>
        <time>2011-04-16T14:34:18Z</time>
      </trkpt>
      <trkpt lat="48.98706" lon="1.0626">
        <ele>129.92</ele>
        <time>2011-04-16T14:34:28Z</time>
      </trkpt>
      <trkpt lat="48.98699" lon="1.06281">
        <ele>130.4</ele>
        <time>2011-04-16T14:34:36Z</time>
      </trkpt>
      <trkpt lat="48.98684" lon="1.06316">
        <ele>129.92</ele>
        <time>2011-04-16T14:34:48Z</time>
      </trkpt>
      <trkpt lat="48.98685" lon="1.06325">
        <ele>129.92</ele>
        <time>2011-04-16T14:35:03Z</time>
      </trkpt>
      <trkpt lat="48.98684" lon="1.06324">
        <ele>129.92</ele>
        <time>2011-04-16T14:35:19Z</time>
      </trkpt>
      <trkpt lat="48.98705" lon="1.06376">
        <ele>128.47</ele>
        <time>2011-04-16T14:35:32Z</time>
      </trkpt>
      <trkpt lat="48.98721" lon="1.06425">
        <ele>126.07</ele>
        <time>2011-04-16T14:35:38Z</time>
      </trkpt>
      <trkpt lat="48.98728" lon="1.06453">
        <ele>127.51</ele>
        <time>2011-04-16T14:35:41Z</time>
      </trkpt>
      <trkpt lat="48.98737" lon="1.06476">
        <ele>126.07</ele>
        <time>2011-04-16T14:35:44Z</time>
      </trkpt>
      <trkpt lat="48.98763" lon="1.06555">
        <ele>122.71</ele>
        <time>2011-04-16T14:35:53Z</time>
      </trkpt>
      <trkpt lat="48.98792" lon="1.06637">
        <ele>120.3</ele>
        <time>2011-04-16T14:36:00Z</time>
      </trkpt>
      <trkpt lat="48.98817" lon="1.06708">
        <ele>122.22</ele>
        <time>2011-04-16T14:36:08Z</time>
      </trkpt>
      <trkpt lat="48.98827" lon="1.06738">
        <ele>121.26</ele>
        <time>2011-04-16T14:36:11Z</time>
      </trkpt>
      <trkpt lat="48.9884" lon="1.06773">
        <ele>122.22</ele>
        <time>2011-04-16T14:36:15Z</time>
      </trkpt>
      <trkpt lat="48.98861" lon="1.06834">
        <ele>122.71</ele>
        <time>2011-04-16T14:36:22Z</time>
      </trkpt>
      <trkpt lat="48.98884" lon="1.06884">
        <ele>122.71</ele>
        <time>2011-04-16T14:36:28Z</time>
      </trkpt>
      <trkpt lat="48.98911" lon="1.06953">
        <ele>122.22</ele>
        <time>2011-04-16T14:36:35Z</time>
      </trkpt>
      <trkpt lat="48.98923" lon="1.06984">
        <ele>120.78</ele>
        <time>2011-04-16T14:36:38Z</time>
      </trkpt>
      <trkpt lat="48.98932" lon="1.07013">
        <ele>119.82</ele>
        <time>2011-04-16T14:36:41Z</time>
      </trkpt>
      <trkpt lat="48.9895" lon="1.07063">
        <ele>118.86</ele>
        <time>2011-04-16T14:36:46Z</time>
      </trkpt>
      <trkpt lat="48.98957" lon="1.07096">
        <ele>119.34</ele>
        <time>2011-04-16T14:36:49Z</time>
      </trkpt>
      <trkpt lat="48.98962" lon="1.07144">
        <ele>120.3</ele>
        <time>2011-04-16T14:36:54Z</time>
      </trkpt>
      <trkpt lat="48.98959" lon="1.07242">
        <ele>122.22</ele>
        <time>2011-04-16T14:37:10Z</time>
      </trkpt>
      <trkpt lat="48.9896" lon="1.07321">
        <ele>122.71</ele>
        <time>2011-04-16T14:37:27Z</time>
      </trkpt>
      <trkpt lat="48.9896" lon="1.0738">
        <ele>123.67</ele>
        <time>2011-04-16T14:37:39Z</time>
      </trkpt>
      <trkpt lat="48.98958" lon="1.0747">
        <ele>123.67</ele>
        <time>2011-04-16T14:37:53Z</time>
      </trkpt>
      <trkpt lat="48.98958" lon="1.0752">
        <ele>122.71</ele>
        <time>2011-04-16T14:38:00Z</time>
      </trkpt>
      <trkpt lat="48.98957" lon="1.0759">
        <ele>123.67</ele>
        <time>2011-04-16T14:38:10Z</time>
      </trkpt>
      <trkpt lat="48.98957" lon="1.07604">
        <ele>123.19</ele>
        <time>2011-04-16T14:38:12Z</time>
      </trkpt>
      <trkpt lat="48.98955" lon="1.07726">
        <ele>123.67</ele>
        <time>2011-04-16T14:38:30Z</time>
      </trkpt>
      <trkpt lat="48.98953" lon="1.07833">
        <ele>121.74</ele>
        <time>2011-04-16T14:38:45Z</time>
      </trkpt>
      <trkpt lat="48.98952" lon="1.07874">
        <ele>120.3</ele>
        <time>2011-04-16T14:38:51Z</time>
      </trkpt>
      <trkpt lat="48.98952" lon="1.0789">
        <ele>118.86</ele>
        <time>2011-04-16T14:38:53Z</time>
      </trkpt>
      <trkpt lat="48.98953" lon="1.07922">
        <ele>117.42</ele>
        <time>2011-04-16T14:38:56Z</time>
      </trkpt>
      <trkpt lat="48.98954" lon="1.0797">
        <ele>119.34</ele>
        <time>2011-04-16T14:39:01Z</time>
      </trkpt>
      <trkpt lat="48.98955" lon="1.07982">
        <ele>120.3</ele>
        <time>2011-04-16T14:39:03Z</time>
      </trkpt>
      <trkpt lat="48.98955" lon="1.08036">
        <ele>121.74</ele>
        <time>2011-04-16T14:39:12Z</time>
      </trkpt>
      <trkpt lat="48.98955" lon="1.08055">
        <ele>122.71</ele>
        <time>2011-04-16T14:39:15Z</time>
      </trkpt>
      <trkpt lat="48.98957" lon="1.08137">
        <ele>122.71</ele>
        <time>2011-04-16T14:39:28Z</time>
      </trkpt>
      <trkpt lat="48.98957" lon="1.08186">
        <ele>121.26</ele>
        <time>2011-04-16T14:39:35Z</time>
      </trkpt>
      <trkpt lat="48.98955" lon="1.08315">
        <ele>117.9</ele>
        <time>2011-04-16T14:39:50Z</time>
      </trkpt>
      <trkpt lat="48.98954" lon="1.08337">
        <ele>116.94</ele>
        <time>2011-04-16T14:39:52Z</time>
      </trkpt>
      <trkpt lat="48.98954" lon="1.08359">
        <ele>118.38</ele>
        <time>2011-04-16T14:39:54Z</time>
      </trkpt>
      <trkpt lat="48.98955" lon="1.08385">
        <ele>119.34</ele>
        <time>2011-04-16T14:39:57Z</time>
      </trkpt>
      <trkpt lat="48.98955" lon="1.08464">
        <ele>120.3</ele>
        <time>2011-04-16T14:40:07Z</time>
      </trkpt>
      <trkpt lat="48.98954" lon="1.0856">
        <ele>120.78</ele>
        <time>2011-04-16T14:40:19Z</time>
      </trkpt>
      <trkpt lat="48.98953" lon="1.08611">
        <ele>120.78</ele>
        <time>2011-04-16T14:40:26Z</time>
      </trkpt>
      <trkpt lat="48.98948" lon="1.08644">
        <ele>120.78</ele>
        <time>2011-04-16T14:40:31Z</time>
      </trkpt>
      <trkpt lat="48.98943" lon="1.08671">
        <ele>121.26</ele>
        <time>2011-04-16T14:40:35Z</time>
      </trkpt>
      <trkpt lat="48.98949" lon="1.08713">
        <ele>120.3</ele>
        <time>2011-04-16T14:40:41Z</time>
      </trkpt>
      <trkpt lat="48.98948" lon="1.08726">
        <ele>120.78</ele>
        <time>2011-04-16T14:40:43Z</time>
      </trkpt>
      <trkpt lat="48.98947" lon="1.08754">
        <ele>120.78</ele>
        <time>2011-04-16T14:40:47Z</time>
      </trkpt>
      <trkpt lat="48.98945" lon="1.08769">
        <ele>120.3</ele>
        <time>2011-04-16T14:40:49Z</time>
      </trkpt>
      <trkpt lat="48.98944" lon="1.08804">
        <ele>120.78</ele>
        <time>2011-04-16T14:40:54Z</time>
      </trkpt>
      <trkpt lat="48.98941" lon="1.08855">
        <ele>120.78</ele>
        <time>2011-04-16T14:41:01Z</time>
      </trkpt>
      <trkpt lat="48.98939" lon="1.08887">
        <ele>120.3</ele>
        <time>2011-04-16T14:41:05Z</time>
      </trkpt>
      <trkpt lat="48.9894" lon="1.08955">
        <ele>119.82</ele>
        <time>2011-04-16T14:41:13Z</time>
      </trkpt>
      <trkpt lat="48.98937" lon="1.08985">
        <ele>120.3</ele>
        <time>2011-04-16T14:41:17Z</time>
      </trkpt>
      <trkpt lat="48.98933" lon="1.09083">
        <ele>119.34</ele>
        <time>2011-04-16T14:41:29Z</time>
      </trkpt>
      <trkpt lat="48.98931" lon="1.09112">
        <ele>119.34</ele>
        <time>2011-04-16T14:41:33Z</time>
      </trkpt>
      <trkpt lat="48.9892" lon="1.09142">
        <ele>119.82</ele>
        <time>2011-04-16T14:41:38Z</time>
      </trkpt>
      <trkpt lat="48.98896" lon="1.09155">
        <ele>120.3</ele>
        <time>2011-04-16T14:41:44Z</time>
      </trkpt>
      <trkpt lat="48.98852" lon="1.09194">
        <ele>122.71</ele>
        <time>2011-04-16T14:41:58Z</time>
      </trkpt>
      <trkpt lat="48.98814" lon="1.0922">
        <ele>122.22</ele>
        <time>2011-04-16T14:42:09Z</time>
      </trkpt>
      <trkpt lat="48.98779" lon="1.09246">
        <ele>121.74</ele>
        <time>2011-04-16T14:42:18Z</time>
      </trkpt>
      <trkpt lat="48.98764" lon="1.0926">
        <ele>122.22</ele>
        <time>2011-04-16T14:42:21Z</time>
      </trkpt>
      <trkpt lat="48.9873" lon="1.09301">
        <ele>120.78</ele>
        <time>2011-04-16T14:42:29Z</time>
      </trkpt>
      <trkpt lat="48.98699" lon="1.09328">
        <ele>117.9</ele>
        <time>2011-04-16T14:42:40Z</time>
      </trkpt>
      <trkpt lat="48.98698" lon="1.09328">
        <ele>118.38</ele>
        <time>2011-04-16T14:42:41Z</time>
      </trkpt>
      <trkpt lat="48.98691" lon="1.09337">
        <ele>117.42</ele>
        <time>2011-04-16T14:42:52Z</time>
      </trkpt>
      <trkpt lat="48.98689" lon="1.0934">
        <ele>117.42</ele>
        <time>2011-04-16T14:42:56Z</time>
      </trkpt>
      <trkpt lat="48.98679" lon="1.09349">
        <ele>117.9</ele>
        <time>2011-04-16T14:43:01Z</time>
      </trkpt>
      <trkpt lat="48.98673" lon="1.09352">
        <ele>117.42</ele>
        <time>2011-04-16T14:43:04Z</time>
      </trkpt>
      <trkpt lat="48.98669" lon="1.0936">
        <ele>117.42</ele>
        <time>2011-04-16T14:43:08Z</time>
      </trkpt>
      <trkpt lat="48.98669" lon="1.09364">
        <ele>118.38</ele>
        <time>2011-04-16T14:43:10Z</time>
      </trkpt>
      <trkpt lat="48.98681" lon="1.09373">
        <ele>116.46</ele>
        <time>2011-04-16T14:43:20Z</time>
      </trkpt>
      <trkpt lat="48.98685" lon="1.09372">
        <ele>115.98</ele>
        <time>2011-04-16T14:43:22Z</time>
      </trkpt>
      <trkpt lat="48.98709" lon="1.09388">
        <ele>117.9</ele>
        <time>2011-04-16T14:43:34Z</time>
      </trkpt>
      <trkpt lat="48.98725" lon="1.09403">
        <ele>119.82</ele>
        <time>2011-04-16T14:43:44Z</time>
      </trkpt>
      <trkpt lat="48.98745" lon="1.09417">
        <ele>121.26</ele>
        <time>2011-04-16T14:43:56Z</time>
      </trkpt>
      <trkpt lat="48.98772" lon="1.09435">
        <ele>123.19</ele>
        <time>2011-04-16T14:44:07Z</time>
      </trkpt>
      <trkpt lat="48.98791" lon="1.09447">
        <ele>123.67</ele>
        <time>2011-04-16T14:44:16Z</time>
      </trkpt>
      <trkpt lat="48.98825" lon="1.09473">
        <ele>122.71</ele>
        <time>2011-04-16T14:44:26Z</time>
      </trkpt>
      <trkpt lat="48.98828" lon="1.09474">
        <ele>122.71</ele>
        <time>2011-04-16T14:44:27Z</time>
      </trkpt>
      <trkpt lat="48.98867" lon="1.09505">
        <ele>120.78</ele>
        <time>2011-04-16T14:44:37Z</time>
      </trkpt>
      <trkpt lat="48.98891" lon="1.09525">
        <ele>119.34</ele>
        <time>2011-04-16T14:44:43Z</time>
      </trkpt>
      <trkpt lat="48.98911" lon="1.09539">
        <ele>117.9</ele>
        <time>2011-04-16T14:44:47Z</time>
      </trkpt>
      <trkpt lat="48.9892" lon="1.09548">
        <ele>117.42</ele>
        <time>2011-04-16T14:44:49Z</time>
      </trkpt>
      <trkpt lat="48.98944" lon="1.09568">
        <ele>115.01</ele>
        <time>2011-04-16T14:44:54Z</time>
      </trkpt>
      <trkpt lat="48.9897" lon="1.09587">
        <ele>111.65</ele>
        <time>2011-04-16T14:44:58Z</time>
      </trkpt>
      <trkpt lat="48.98976" lon="1.09593">
        <ele>112.61</ele>
        <time>2011-04-16T14:44:59Z</time>
      </trkpt>
      <trkpt lat="48.99027" lon="1.0963">
        <ele>108.77</ele>
        <time>2011-04-16T14:45:08Z</time>
      </trkpt>
      <trkpt lat="48.99046" lon="1.09653">
        <ele>106.36</ele>
        <time>2011-04-16T14:45:13Z</time>
      </trkpt>
      <trkpt lat="48.99059" lon="1.09681">
        <ele>105.88</ele>
        <time>2011-04-16T14:45:17Z</time>
      </trkpt>
      <trkpt lat="48.99064" lon="1.09695">
        <ele>106.36</ele>
        <time>2011-04-16T14:45:19Z</time>
      </trkpt>
      <trkpt lat="48.99069" lon="1.09725">
        <ele>105.88</ele>
        <time>2011-04-16T14:45:23Z</time>
      </trkpt>
      <trkpt lat="48.99074" lon="1.09753">
        <ele>105.4</ele>
        <time>2011-04-16T14:45:27Z</time>
      </trkpt>
      <trkpt lat="48.99079" lon="1.0981">
        <ele>104.92</ele>
        <time>2011-04-16T14:45:36Z</time>
      </trkpt>
      <trkpt lat="48.99086" lon="1.09846">
        <ele>103.96</ele>
        <time>2011-04-16T14:45:42Z</time>
      </trkpt>
      <trkpt lat="48.99096" lon="1.09877">
        <ele>103.48</ele>
        <time>2011-04-16T14:45:47Z</time>
      </trkpt>
      <trkpt lat="48.991" lon="1.09892">
        <ele>104.44</ele>
        <time>2011-04-16T14:45:51Z</time>
      </trkpt>
      <trkpt lat="48.99102" lon="1.099">
        <ele>103</ele>
        <time>2011-04-16T14:45:55Z</time>
      </trkpt>
      <trkpt lat="48.99112" lon="1.09899">
        <ele>104.44</ele>
        <time>2011-04-16T14:45:58Z</time>
      </trkpt>
      <trkpt lat="48.99131" lon="1.09902">
        <ele>100.6</ele>
        <time>2011-04-16T14:46:02Z</time>
      </trkpt>
      <trkpt lat="48.99161" lon="1.09937">
        <ele>97.71</ele>
        <time>2011-04-16T14:46:09Z</time>
      </trkpt>
      <trkpt lat="48.99167" lon="1.09942">
        <ele>97.71</ele>
        <time>2011-04-16T14:46:10Z</time>
      </trkpt>
      <trkpt lat="48.99185" lon="1.09956">
        <ele>96.27</ele>
        <time>2011-04-16T14:46:13Z</time>
      </trkpt>
      <trkpt lat="48.99219" lon="1.09977">
        <ele>92.9</ele>
        <time>2011-04-16T14:46:18Z</time>
      </trkpt>
      <trkpt lat="48.99249" lon="1.09989">
        <ele>90.98</ele>
        <time>2011-04-16T14:46:22Z</time>
      </trkpt>
      <trkpt lat="48.99303" lon="1.09974">
        <ele>86.66</ele>
        <time>2011-04-16T14:46:28Z</time>
      </trkpt>
      <trkpt lat="48.99331" lon="1.09962">
        <ele>83.77</ele>
        <time>2011-04-16T14:46:31Z</time>
      </trkpt>
      <trkpt lat="48.99358" lon="1.09951">
        <ele>81.85</ele>
        <time>2011-04-16T14:46:34Z</time>
      </trkpt>
      <trkpt lat="48.9941" lon="1.09929">
        <ele>78.97</ele>
        <time>2011-04-16T14:46:40Z</time>
      </trkpt>
      <trkpt lat="48.99426" lon="1.09921">
        <ele>77.04</ele>
        <time>2011-04-16T14:46:42Z</time>
      </trkpt>
      <trkpt lat="48.9946" lon="1.09886">
        <ele>76.56</ele>
        <time>2011-04-16T14:46:47Z</time>
      </trkpt>
      <trkpt lat="48.99467" lon="1.09868">
        <ele>76.08</ele>
        <time>2011-04-16T14:46:49Z</time>
      </trkpt>
      <trkpt lat="48.99484" lon="1.09857">
        <ele>75.12</ele>
        <time>2011-04-16T14:46:54Z</time>
      </trkpt>
      <trkpt lat="48.99511" lon="1.09883">
        <ele>72.72</ele>
        <time>2011-04-16T14:47:00Z</time>
      </trkpt>
      <trkpt lat="48.99538" lon="1.09944">
        <ele>70.31</ele>
        <time>2011-04-16T14:47:08Z</time>
      </trkpt>
      <trkpt lat="48.99545" lon="1.09967">
        <ele>68.87</ele>
        <time>2011-04-16T14:47:11Z</time>
      </trkpt>
      <trkpt lat="48.99555" lon="1.10005">
        <ele>65.51</ele>
        <time>2011-04-16T14:47:16Z</time>
      </trkpt>
      <trkpt lat="48.99591" lon="1.10024">
        <ele>65.51</ele>
        <time>2011-04-16T14:47:22Z</time>
      </trkpt>
      <trkpt lat="48.99599" lon="1.1002">
        <ele>65.51</ele>
        <time>2011-04-16T14:47:23Z</time>
      </trkpt>
      <trkpt lat="48.99662" lon="1.09976">
        <ele>64.55</ele>
        <time>2011-04-16T14:47:32Z</time>
      </trkpt>
      <trkpt lat="48.99774" lon="1.09835">
        <ele>65.51</ele>
        <time>2011-04-16T14:47:51Z</time>
      </trkpt>
      <trkpt lat="48.99818" lon="1.09775">
        <ele>65.03</ele>
        <time>2011-04-16T14:47:59Z</time>
      </trkpt>
      <trkpt lat="48.99833" lon="1.0973">
        <ele>65.99</ele>
        <time>2011-04-16T14:48:06Z</time>
      </trkpt>
      <trkpt lat="48.99796" lon="1.09502">
        <ele>64.55</ele>
        <time>2011-04-16T14:48:30Z</time>
      </trkpt>
      <trkpt lat="48.99737" lon="1.09328">
        <ele>65.03</ele>
        <time>2011-04-16T14:48:50Z</time>
      </trkpt>
      <trkpt lat="48.99726" lon="1.09292">
        <ele>65.99</ele>
        <time>2011-04-16T14:48:54Z</time>
      </trkpt>
      <trkpt lat="48.99712" lon="1.09227">
        <ele>65.99</ele>
        <time>2011-04-16T14:49:01Z</time>
      </trkpt>
      <trkpt lat="48.99704" lon="1.09202">
        <ele>65.51</ele>
        <time>2011-04-16T14:49:04Z</time>
      </trkpt>
      <trkpt lat="48.99666" lon="1.09079">
        <ele>66.47</ele>
        <time>2011-04-16T14:49:18Z</time>
      </trkpt>
      <trkpt lat="48.99659" lon="1.09015">
        <ele>66.47</ele>
        <time>2011-04-16T14:49:25Z</time>
      </trkpt>
      <trkpt lat="48.9962" lon="1.0889">
        <ele>67.43</ele>
        <time>2011-04-16T14:49:40Z</time>
      </trkpt>
      <trkpt lat="48.99561" lon="1.08697">
        <ele>66.95</ele>
        <time>2011-04-16T14:50:04Z</time>
      </trkpt>
      <trkpt lat="48.9952" lon="1.08472">
        <ele>67.43</ele>
        <time>2011-04-16T14:50:29Z</time>
      </trkpt>
      <trkpt lat="48.9948" lon="1.0825">
        <ele>67.91</ele>
        <time>2011-04-16T14:50:54Z</time>
      </trkpt>
      <trkpt lat="48.99449" lon="1.08031">
        <ele>67.43</ele>
        <time>2011-04-16T14:51:18Z</time>
      </trkpt>
      <trkpt lat="48.9945" lon="1.07806">
        <ele>67.91</ele>
        <time>2011-04-16T14:51:42Z</time>
      </trkpt>
      <trkpt lat="48.9945" lon="1.07763">
        <ele>68.87</ele>
        <time>2011-04-16T14:51:48Z</time>
      </trkpt>
      <trkpt lat="48.99469" lon="1.07719">
        <ele>69.35</ele>
        <time>2011-04-16T14:51:59Z</time>
      </trkpt>
      <trkpt lat="48.99491" lon="1.07702">
        <ele>68.39</ele>
        <time>2011-04-16T14:52:07Z</time>
      </trkpt>
      <trkpt lat="48.99517" lon="1.07681">
        <ele>68.39</ele>
        <time>2011-04-16T14:52:20Z</time>
      </trkpt>
      <trkpt lat="48.99553" lon="1.07658">
        <ele>67.91</ele>
        <time>2011-04-16T14:52:34Z</time>
      </trkpt>
      <trkpt lat="48.99561" lon="1.07652">
        <ele>68.39</ele>
        <time>2011-04-16T14:52:39Z</time>
      </trkpt>
      <trkpt lat="48.99579" lon="1.07638">
        <ele>68.87</ele>
        <time>2011-04-16T14:52:49Z</time>
      </trkpt>
      <trkpt lat="48.99587" lon="1.07616">
        <ele>68.39</ele>
        <time>2011-04-16T14:52:57Z</time>
      </trkpt>
      <trkpt lat="48.9959" lon="1.07561">
        <ele>68.39</ele>
        <time>2011-04-16T14:53:10Z</time>
      </trkpt>
      <trkpt lat="48.99625" lon="1.07526">
        <ele>69.35</ele>
        <time>2011-04-16T14:53:21Z</time>
      </trkpt>
      <trkpt lat="48.99663" lon="1.075">
        <ele>70.31</ele>
        <time>2011-04-16T14:53:32Z</time>
      </trkpt>
      <trkpt lat="48.99698" lon="1.07472">
        <ele>70.31</ele>
        <time>2011-04-16T14:53:43Z</time>
      </trkpt>
      <trkpt lat="48.99712" lon="1.07456">
        <ele>69.35</ele>
        <time>2011-04-16T14:53:47Z</time>
      </trkpt>
      <trkpt lat="48.99779" lon="1.07407">
        <ele>71.76</ele>
        <time>2011-04-16T14:54:04Z</time>
      </trkpt>
      <trkpt lat="48.9982" lon="1.07372">
        <ele>72.24</ele>
        <time>2011-04-16T14:54:19Z</time>
      </trkpt>
      <trkpt lat="48.99846" lon="1.07378">
        <ele>73.2</ele>
        <time>2011-04-16T14:54:31Z</time>
      </trkpt>
      <trkpt lat="48.99878" lon="1.074">
        <ele>76.08</ele>
        <time>2011-04-16T14:54:46Z</time>
      </trkpt>
      <trkpt lat="48.99893" lon="1.07409">
        <ele>77.04</ele>
        <time>2011-04-16T14:54:55Z</time>
      </trkpt>
      <trkpt lat="48.99908" lon="1.07416">
        <ele>78</ele>
        <time>2011-04-16T14:55:02Z</time>
      </trkpt>
      <trkpt lat="48.99917" lon="1.0742">
        <ele>78</ele>
        <time>2011-04-16T14:55:07Z</time>
      </trkpt>
      <trkpt lat="48.9994" lon="1.07428">
        <ele>79.93</ele>
        <time>2011-04-16T14:55:20Z</time>
      </trkpt>
      <trkpt lat="48.99965" lon="1.07428">
        <ele>82.33</ele>
        <time>2011-04-16T14:55:32Z</time>
      </trkpt>
      <trkpt lat="48.99983" lon="1.07427">
        <ele>82.81</ele>
        <time>2011-04-16T14:55:42Z</time>
      </trkpt>
      <trkpt lat="48.99992" lon="1.07425">
        <ele>84.25</ele>
        <time>2011-04-16T14:55:47Z</time>
      </trkpt>
      <trkpt lat="49.00006" lon="1.0743">
        <ele>84.73</ele>
        <time>2011-04-16T14:55:54Z</time>
      </trkpt>
      <trkpt lat="49.00025" lon="1.0743">
        <ele>86.66</ele>
        <time>2011-04-16T14:56:05Z</time>
      </trkpt>
      <trkpt lat="49.0003" lon="1.07422">
        <ele>87.14</ele>
        <time>2011-04-16T14:56:10Z</time>
      </trkpt>
      <trkpt lat="49.00034" lon="1.07402">
        <ele>88.58</ele>
        <time>2011-04-16T14:56:19Z</time>
      </trkpt>
      <trkpt lat="49.00021" lon="1.07371">
        <ele>90.98</ele>
        <time>2011-04-16T14:56:31Z</time>
      </trkpt>
      <trkpt lat="49.00016" lon="1.07365">
        <ele>90.98</ele>
        <time>2011-04-16T14:56:34Z</time>
      </trkpt>
      <trkpt lat="49.00013" lon="1.07361">
        <ele>91.94</ele>
        <time>2011-04-16T14:56:36Z</time>
      </trkpt>
      <trkpt lat="48.99998" lon="1.07339">
        <ele>94.35</ele>
        <time>2011-04-16T14:56:47Z</time>
      </trkpt>
      <trkpt lat="48.99995" lon="1.07323">
        <ele>95.31</ele>
        <time>2011-04-16T14:56:53Z</time>
      </trkpt>
      <trkpt lat="48.99998" lon="1.07292">
        <ele>97.23</ele>
        <time>2011-04-16T14:57:03Z</time>
      </trkpt>
      <trkpt lat="49.00007" lon="1.07264">
        <ele>100.6</ele>
        <time>2011-04-16T14:57:16Z</time>
      </trkpt>
      <trkpt lat="49.00018" lon="1.07232">
        <ele>102.52</ele>
        <time>2011-04-16T14:57:28Z</time>
      </trkpt>
      <trkpt lat="49.00019" lon="1.0723">
        <ele>102.52</ele>
        <time>2011-04-16T14:57:29Z</time>
      </trkpt>
      <trkpt lat="49.00023" lon="1.07224">
        <ele>103.48</ele>
        <time>2011-04-16T14:57:32Z</time>
      </trkpt>
      <trkpt lat="49.00033" lon="1.07207">
        <ele>104.44</ele>
        <time>2011-04-16T14:57:42Z</time>
      </trkpt>
      <trkpt lat="49.00045" lon="1.07199">
        <ele>106.36</ele>
        <time>2011-04-16T14:57:50Z</time>
      </trkpt>
      <trkpt lat="49.00052" lon="1.0719">
        <ele>107.81</ele>
        <time>2011-04-16T14:57:56Z</time>
      </trkpt>
      <trkpt lat="49.00056" lon="1.07171">
        <ele>110.21</ele>
        <time>2011-04-16T14:58:07Z</time>
      </trkpt>
      <trkpt lat="49.0006" lon="1.07136">
        <ele>113.57</ele>
        <time>2011-04-16T14:58:21Z</time>
      </trkpt>
      <trkpt lat="49.00062" lon="1.0711">
        <ele>115.01</ele>
        <time>2011-04-16T14:58:33Z</time>
      </trkpt>
      <trkpt lat="49.00064" lon="1.07089">
        <ele>116.94</ele>
        <time>2011-04-16T14:58:43Z</time>
      </trkpt>
      <trkpt lat="49.00066" lon="1.07082">
        <ele>116.46</ele>
        <time>2011-04-16T14:58:47Z</time>
      </trkpt>
      <trkpt lat="49.00069" lon="1.07074">
        <ele>117.42</ele>
        <time>2011-04-16T14:58:52Z</time>
      </trkpt>
      <trkpt lat="49.0008" lon="1.07044">
        <ele>117.9</ele>
        <time>2011-04-16T14:59:08Z</time>
      </trkpt>
      <trkpt lat="49.00092" lon="1.07024">
        <ele>119.34</ele>
        <time>2011-04-16T14:59:18Z</time>
      </trkpt>
      <trkpt lat="49.00096" lon="1.07023">
        <ele>119.34</ele>
        <time>2011-04-16T14:59:21Z</time>
      </trkpt>
      <trkpt lat="49.00097" lon="1.07019">
        <ele>119.82</ele>
        <time>2011-04-16T14:59:25Z</time>
      </trkpt>
      <trkpt lat="49.00113" lon="1.07005">
        <ele>120.3</ele>
        <time>2011-04-16T14:59:39Z</time>
      </trkpt>
      <trkpt lat="49.00132" lon="1.06998">
        <ele>121.26</ele>
        <time>2011-04-16T14:59:54Z</time>
      </trkpt>
      <trkpt lat="49.00157" lon="1.06987">
        <ele>122.71</ele>
        <time>2011-04-16T15:00:11Z</time>
      </trkpt>
      <trkpt lat="49.00183" lon="1.06975">
        <ele>123.19</ele>
        <time>2011-04-16T15:00:31Z</time>
      </trkpt>
      <trkpt lat="49.00219" lon="1.06959">
        <ele>122.71</ele>
        <time>2011-04-16T15:00:47Z</time>
      </trkpt>
      <trkpt lat="49.0027" lon="1.06935">
        <ele>123.67</ele>
        <time>2011-04-16T15:01:05Z</time>
      </trkpt>
      <trkpt lat="49.00319" lon="1.06877">
        <ele>124.63</ele>
        <time>2011-04-16T15:01:25Z</time>
      </trkpt>
      <trkpt lat="49.00365" lon="1.06799">
        <ele>124.63</ele>
        <time>2011-04-16T15:01:47Z</time>
      </trkpt>
      <trkpt lat="49.0041" lon="1.0676">
        <ele>124.63</ele>
        <time>2011-04-16T15:02:02Z</time>
      </trkpt>
      <trkpt lat="49.00447" lon="1.0673">
        <ele>122.22</ele>
        <time>2011-04-16T15:02:13Z</time>
      </trkpt>
      <trkpt lat="49.00486" lon="1.06709">
        <ele>121.74</ele>
        <time>2011-04-16T15:02:24Z</time>
      </trkpt>
      <trkpt lat="49.00486" lon="1.0671">
        <ele>121.74</ele>
        <time>2011-04-16T15:02:32Z</time>
      </trkpt>
      <trkpt lat="49.00513" lon="1.06693">
        <ele>119.82</ele>
        <time>2011-04-16T15:02:43Z</time>
      </trkpt>
      <trkpt lat="49.00581" lon="1.0667">
        <ele>119.34</ele>
        <time>2011-04-16T15:02:57Z</time>
      </trkpt>
      <trkpt lat="49.00585" lon="1.06668">
        <ele>119.34</ele>
        <time>2011-04-16T15:02:58Z</time>
      </trkpt>
      <trkpt lat="49.00662" lon="1.0664">
        <ele>121.26</ele>
        <time>2011-04-16T15:03:14Z</time>
      </trkpt>
      <trkpt lat="49.00681" lon="1.06632">
        <ele>121.26</ele>
        <time>2011-04-16T15:03:18Z</time>
      </trkpt>
      <trkpt lat="49.00717" lon="1.06584">
        <ele>122.22</ele>
        <time>2011-04-16T15:03:27Z</time>
      </trkpt>
      <trkpt lat="49.0079" lon="1.06492">
        <ele>122.71</ele>
        <time>2011-04-16T15:03:44Z</time>
      </trkpt>
      <trkpt lat="49.00881" lon="1.06437">
        <ele>120.3</ele>
        <time>2011-04-16T15:03:59Z</time>
      </trkpt>
      <trkpt lat="49.00926" lon="1.06407">
        <ele>119.82</ele>
        <time>2011-04-16T15:04:06Z</time>
      </trkpt>
      <trkpt lat="49.00964" lon="1.06368">
        <ele>115.5</ele>
        <time>2011-04-16T15:04:12Z</time>
      </trkpt>
      <trkpt lat="49.00971" lon="1.06361">
        <ele>115.5</ele>
        <time>2011-04-16T15:04:13Z</time>
      </trkpt>
      <trkpt lat="49.00992" lon="1.0634">
        <ele>115.01</ele>
        <time>2011-04-16T15:04:16Z</time>
      </trkpt>
      <trkpt lat="49.01038" lon="1.06252">
        <ele>111.65</ele>
        <time>2011-04-16T15:04:25Z</time>
      </trkpt>
      <trkpt lat="49.01049" lon="1.06228">
        <ele>112.13</ele>
        <time>2011-04-16T15:04:28Z</time>
      </trkpt>
      <trkpt lat="49.01065" lon="1.06205">
        <ele>113.09</ele>
        <time>2011-04-16T15:04:33Z</time>
      </trkpt>
      <trkpt lat="49.0108" lon="1.0619">
        <ele>114.53</ele>
        <time>2011-04-16T15:04:37Z</time>
      </trkpt>
      <trkpt lat="49.01176" lon="1.06128">
        <ele>115.5</ele>
        <time>2011-04-16T15:04:57Z</time>
      </trkpt>
      <trkpt lat="49.01274" lon="1.06091">
        <ele>116.94</ele>
        <time>2011-04-16T15:05:16Z</time>
      </trkpt>
      <trkpt lat="49.01352" lon="1.06062">
        <ele>114.53</ele>
        <time>2011-04-16T15:05:30Z</time>
      </trkpt>
      <trkpt lat="49.01358" lon="1.06058">
        <ele>114.05</ele>
        <time>2011-04-16T15:05:31Z</time>
      </trkpt>
      <trkpt lat="49.0139" lon="1.06001">
        <ele>113.09</ele>
        <time>2011-04-16T15:05:38Z</time>
      </trkpt>
      <trkpt lat="49.01394" lon="1.05944">
        <ele>111.65</ele>
        <time>2011-04-16T15:05:43Z</time>
      </trkpt>
      <trkpt lat="49.01394" lon="1.05932">
        <ele>110.69</ele>
        <time>2011-04-16T15:05:44Z</time>
      </trkpt>
      <trkpt lat="49.01415" lon="1.05894">
        <ele>107.32</ele>
        <time>2011-04-16T15:05:51Z</time>
      </trkpt>
      <trkpt lat="49.01431" lon="1.05913">
        <ele>105.4</ele>
        <time>2011-04-16T15:05:54Z</time>
      </trkpt>
      <trkpt lat="49.01445" lon="1.05962">
        <ele>103</ele>
        <time>2011-04-16T15:05:58Z</time>
      </trkpt>
      <trkpt lat="49.0145" lon="1.0599">
        <ele>99.15</ele>
        <time>2011-04-16T15:06:00Z</time>
      </trkpt>
      <trkpt lat="49.01453" lon="1.06005">
        <ele>99.63</ele>
        <time>2011-04-16T15:06:01Z</time>
      </trkpt>
      <trkpt lat="49.01473" lon="1.06066">
        <ele>96.27</ele>
        <time>2011-04-16T15:06:05Z</time>
      </trkpt>
      <trkpt lat="49.01504" lon="1.06142">
        <ele>92.9</ele>
        <time>2011-04-16T15:06:10Z</time>
      </trkpt>
      <trkpt lat="49.01511" lon="1.06156">
        <ele>92.42</ele>
        <time>2011-04-16T15:06:11Z</time>
      </trkpt>
      <trkpt lat="49.01524" lon="1.06182">
        <ele>92.9</ele>
        <time>2011-04-16T15:06:13Z</time>
      </trkpt>
      <trkpt lat="49.01553" lon="1.06217">
        <ele>95.79</ele>
        <time>2011-04-16T15:06:17Z</time>
      </trkpt>
      <trkpt lat="49.01566" lon="1.06226">
        <ele>97.23</ele>
        <time>2011-04-16T15:06:19Z</time>
      </trkpt>
      <trkpt lat="49.01582" lon="1.06234">
        <ele>98.67</ele>
        <time>2011-04-16T15:06:22Z</time>
      </trkpt>
      <trkpt lat="49.01601" lon="1.0624">
        <ele>102.04</ele>
        <time>2011-04-16T15:06:28Z</time>
      </trkpt>
      <trkpt lat="49.01619" lon="1.0622">
        <ele>105.4</ele>
        <time>2011-04-16T15:06:37Z</time>
      </trkpt>
      <trkpt lat="49.01637" lon="1.0619">
        <ele>108.77</ele>
        <time>2011-04-16T15:06:50Z</time>
      </trkpt>
      <trkpt lat="49.01649" lon="1.06169">
        <ele>110.21</ele>
        <time>2011-04-16T15:07:01Z</time>
      </trkpt>
      <trkpt lat="49.01676" lon="1.06147">
        <ele>113.09</ele>
        <time>2011-04-16T15:07:18Z</time>
      </trkpt>
      <trkpt lat="49.01677" lon="1.06146">
        <ele>113.09</ele>
        <time>2011-04-16T15:07:19Z</time>
      </trkpt>
      <trkpt lat="49.01714" lon="1.06135">
        <ele>115.01</ele>
        <time>2011-04-16T15:07:40Z</time>
      </trkpt>
      <trkpt lat="49.01749" lon="1.06131">
        <ele>115.01</ele>
        <time>2011-04-16T15:07:56Z</time>
      </trkpt>
      <trkpt lat="49.01789" lon="1.06123">
        <ele>115.01</ele>
        <time>2011-04-16T15:08:13Z</time>
      </trkpt>
      <trkpt lat="49.01807" lon="1.06119">
        <ele>115.01</ele>
        <time>2011-04-16T15:08:21Z</time>
      </trkpt>
      <trkpt lat="49.01811" lon="1.06129">
        <ele>115.01</ele>
        <time>2011-04-16T15:08:26Z</time>
      </trkpt>
      <trkpt lat="49.01825" lon="1.06205">
        <ele>114.05</ele>
        <time>2011-04-16T15:08:46Z</time>
      </trkpt>
      <trkpt lat="49.01847" lon="1.06345">
        <ele>114.05</ele>
        <time>2011-04-16T15:09:09Z</time>
      </trkpt>
      <trkpt lat="49.01863" lon="1.06481">
        <ele>111.17</ele>
        <time>2011-04-16T15:09:29Z</time>
      </trkpt>
      <trkpt lat="49.01864" lon="1.06663">
        <ele>111.17</ele>
        <time>2011-04-16T15:09:51Z</time>
      </trkpt>
      <trkpt lat="49.01867" lon="1.06774">
        <ele>108.77</ele>
        <time>2011-04-16T15:10:06Z</time>
      </trkpt>
      <trkpt lat="49.01867" lon="1.06807">
        <ele>107.81</ele>
        <time>2011-04-16T15:10:10Z</time>
      </trkpt>
      <trkpt lat="49.01869" lon="1.06852">
        <ele>106.36</ele>
        <time>2011-04-16T15:10:15Z</time>
      </trkpt>
      <trkpt lat="49.01869" lon="1.06898">
        <ele>106.36</ele>
        <time>2011-04-16T15:10:20Z</time>
      </trkpt>
      <trkpt lat="49.01866" lon="1.06994">
        <ele>102.52</ele>
        <time>2011-04-16T15:10:30Z</time>
      </trkpt>
      <trkpt lat="49.01861" lon="1.07077">
        <ele>100.6</ele>
        <time>2011-04-16T15:10:38Z</time>
      </trkpt>
      <trkpt lat="49.01859" lon="1.07145">
        <ele>97.23</ele>
        <time>2011-04-16T15:10:44Z</time>
      </trkpt>
      <trkpt lat="49.01859" lon="1.07196">
        <ele>93.87</ele>
        <time>2011-04-16T15:10:48Z</time>
      </trkpt>
      <trkpt lat="49.01859" lon="1.07223">
        <ele>93.39</ele>
        <time>2011-04-16T15:10:50Z</time>
      </trkpt>
      <trkpt lat="49.0186" lon="1.07266">
        <ele>91.94</ele>
        <time>2011-04-16T15:10:53Z</time>
      </trkpt>
      <trkpt lat="49.0186" lon="1.07321">
        <ele>89.54</ele>
        <time>2011-04-16T15:10:57Z</time>
      </trkpt>
      <trkpt lat="49.01861" lon="1.07384">
        <ele>87.62</ele>
        <time>2011-04-16T15:11:02Z</time>
      </trkpt>
      <trkpt lat="49.01876" lon="1.07442">
        <ele>87.14</ele>
        <time>2011-04-16T15:11:08Z</time>
      </trkpt>
      <trkpt lat="49.0192" lon="1.07527">
        <ele>84.25</ele>
        <time>2011-04-16T15:11:18Z</time>
      </trkpt>
      <trkpt lat="49.01982" lon="1.07645">
        <ele>84.25</ele>
        <time>2011-04-16T15:11:34Z</time>
      </trkpt>
      <trkpt lat="49.02028" lon="1.07743">
        <ele>83.29</ele>
        <time>2011-04-16T15:11:51Z</time>
      </trkpt>
      <trkpt lat="49.02029" lon="1.0778">
        <ele>85.69</ele>
        <time>2011-04-16T15:12:02Z</time>
      </trkpt>
      <trkpt lat="49.01999" lon="1.07819">
        <ele>89.06</ele>
        <time>2011-04-16T15:12:22Z</time>
      </trkpt>
      <trkpt lat="49.0198" lon="1.07823">
        <ele>90.5</ele>
        <time>2011-04-16T15:12:34Z</time>
      </trkpt>
      <trkpt lat="49.01965" lon="1.07823">
        <ele>92.42</ele>
        <time>2011-04-16T15:12:44Z</time>
      </trkpt>
      <trkpt lat="49.01955" lon="1.07817">
        <ele>93.39</ele>
        <time>2011-04-16T15:12:50Z</time>
      </trkpt>
      <trkpt lat="49.01936" lon="1.07813">
        <ele>95.31</ele>
        <time>2011-04-16T15:13:00Z</time>
      </trkpt>
      <trkpt lat="49.01931" lon="1.07815">
        <ele>95.79</ele>
        <time>2011-04-16T15:13:03Z</time>
      </trkpt>
      <trkpt lat="49.01916" lon="1.07817">
        <ele>97.23</ele>
        <time>2011-04-16T15:13:15Z</time>
      </trkpt>
      <trkpt lat="49.01895" lon="1.07825">
        <ele>100.6</ele>
        <time>2011-04-16T15:13:28Z</time>
      </trkpt>
      <trkpt lat="49.0188" lon="1.07833">
        <ele>102.52</ele>
        <time>2011-04-16T15:13:38Z</time>
      </trkpt>
      <trkpt lat="49.01874" lon="1.07835">
        <ele>103</ele>
        <time>2011-04-16T15:13:41Z</time>
      </trkpt>
      <trkpt lat="49.01857" lon="1.07839">
        <ele>104.44</ele>
        <time>2011-04-16T15:13:53Z</time>
      </trkpt>
      <trkpt lat="49.01841" lon="1.07844">
        <ele>107.81</ele>
        <time>2011-04-16T15:14:05Z</time>
      </trkpt>
      <trkpt lat="49.01828" lon="1.07848">
        <ele>109.73</ele>
        <time>2011-04-16T15:14:14Z</time>
      </trkpt>
      <trkpt lat="49.01807" lon="1.07854">
        <ele>110.69</ele>
        <time>2011-04-16T15:14:25Z</time>
      </trkpt>
      <trkpt lat="49.01803" lon="1.07858">
        <ele>111.65</ele>
        <time>2011-04-16T15:14:31Z</time>
      </trkpt>
      <trkpt lat="49.01794" lon="1.07876">
        <ele>113.09</ele>
        <time>2011-04-16T15:14:40Z</time>
      </trkpt>
      <trkpt lat="49.01794" lon="1.07881">
        <ele>112.61</ele>
        <time>2011-04-16T15:14:42Z</time>
      </trkpt>
      <trkpt lat="49.01796" lon="1.07914">
        <ele>114.05</ele>
        <time>2011-04-16T15:14:53Z</time>
      </trkpt>
      <trkpt lat="49.01798" lon="1.07931">
        <ele>114.05</ele>
        <time>2011-04-16T15:14:57Z</time>
      </trkpt>
      <trkpt lat="49.018" lon="1.07938">
        <ele>114.53</ele>
        <time>2011-04-16T15:14:59Z</time>
      </trkpt>
      <trkpt lat="49.01815" lon="1.07986">
        <ele>115.01</ele>
        <time>2011-04-16T15:15:12Z</time>
      </trkpt>
      <trkpt lat="49.01819" lon="1.08006">
        <ele>115.01</ele>
        <time>2011-04-16T15:15:18Z</time>
      </trkpt>
      <trkpt lat="49.01822" lon="1.08017">
        <ele>115.5</ele>
        <time>2011-04-16T15:15:21Z</time>
      </trkpt>
      <trkpt lat="49.01825" lon="1.08036">
        <ele>115.01</ele>
        <time>2011-04-16T15:15:25Z</time>
      </trkpt>
      <trkpt lat="49.01829" lon="1.08057">
        <ele>115.98</ele>
        <time>2011-04-16T15:15:30Z</time>
      </trkpt>
      <trkpt lat="49.01829" lon="1.08083">
        <ele>117.42</ele>
        <time>2011-04-16T15:15:37Z</time>
      </trkpt>
      <trkpt lat="49.01832" lon="1.08103">
        <ele>117.42</ele>
        <time>2011-04-16T15:15:43Z</time>
      </trkpt>
      <trkpt lat="49.0184" lon="1.08144">
        <ele>118.38</ele>
        <time>2011-04-16T15:15:53Z</time>
      </trkpt>
      <trkpt lat="49.01842" lon="1.08163">
        <ele>118.38</ele>
        <time>2011-04-16T15:15:59Z</time>
      </trkpt>
      <trkpt lat="49.01849" lon="1.08188">
        <ele>118.86</ele>
        <time>2011-04-16T15:16:04Z</time>
      </trkpt>
      <trkpt lat="49.01871" lon="1.08244">
        <ele>118.86</ele>
        <time>2011-04-16T15:16:15Z</time>
      </trkpt>
      <trkpt lat="49.01877" lon="1.08286">
        <ele>118.86</ele>
        <time>2011-04-16T15:16:23Z</time>
      </trkpt>
      <trkpt lat="49.01889" lon="1.08329">
        <ele>120.3</ele>
        <time>2011-04-16T15:16:31Z</time>
      </trkpt>
      <trkpt lat="49.01904" lon="1.08384">
        <ele>118.86</ele>
        <time>2011-04-16T15:16:41Z</time>
      </trkpt>
      <trkpt lat="49.01909" lon="1.08409">
        <ele>118.38</ele>
        <time>2011-04-16T15:16:45Z</time>
      </trkpt>
      <trkpt lat="49.01912" lon="1.08421">
        <ele>119.34</ele>
        <time>2011-04-16T15:16:47Z</time>
      </trkpt>
      <trkpt lat="49.01929" lon="1.08489">
        <ele>118.38</ele>
        <time>2011-04-16T15:16:58Z</time>
      </trkpt>
      <trkpt lat="49.01939" lon="1.08537">
        <ele>117.9</ele>
        <time>2011-04-16T15:17:07Z</time>
      </trkpt>
      <trkpt lat="49.01942" lon="1.08546">
        <ele>118.38</ele>
        <time>2011-04-16T15:17:21Z</time>
      </trkpt>
      <trkpt lat="49.0194" lon="1.08542">
        <ele>118.38</ele>
        <time>2011-04-16T15:17:45Z</time>
      </trkpt>
      <trkpt lat="49.01943" lon="1.08541">
        <ele>118.86</ele>
        <time>2011-04-16T15:18:25Z</time>
      </trkpt>
      <trkpt lat="49.01941" lon="1.08541">
        <ele>118.86</ele>
        <time>2011-04-16T15:20:04Z</time>
      </trkpt>
      <trkpt lat="49.01943" lon="1.08544">
        <ele>118.86</ele>
        <time>2011-04-16T15:20:42Z</time>
      </trkpt>
      <trkpt lat="49.01953" lon="1.08571">
        <ele>118.86</ele>
        <time>2011-04-16T15:20:57Z</time>
      </trkpt>
      <trkpt lat="49.01961" lon="1.08606">
        <ele>118.38</ele>
        <time>2011-04-16T15:21:08Z</time>
      </trkpt>
      <trkpt lat="49.01969" lon="1.08659">
        <ele>118.38</ele>
        <time>2011-04-16T15:21:18Z</time>
      </trkpt>
      <trkpt lat="49.01981" lon="1.08707">
        <ele>118.38</ele>
        <time>2011-04-16T15:21:25Z</time>
      </trkpt>
      <trkpt lat="49.0199" lon="1.08746">
        <ele>118.38</ele>
        <time>2011-04-16T15:21:31Z</time>
      </trkpt>
      <trkpt lat="49.01995" lon="1.08766">
        <ele>117.42</ele>
        <time>2011-04-16T15:21:33Z</time>
      </trkpt>
      <trkpt lat="49.01998" lon="1.08781">
        <ele>117.9</ele>
        <time>2011-04-16T15:21:35Z</time>
      </trkpt>
      <trkpt lat="49.02004" lon="1.08808">
        <ele>116.94</ele>
        <time>2011-04-16T15:21:39Z</time>
      </trkpt>
      <trkpt lat="49.02015" lon="1.08862">
        <ele>117.42</ele>
        <time>2011-04-16T15:21:46Z</time>
      </trkpt>
      <trkpt lat="49.02023" lon="1.08889">
        <ele>116.94</ele>
        <time>2011-04-16T15:21:50Z</time>
      </trkpt>
      <trkpt lat="49.02038" lon="1.08939">
        <ele>116.46</ele>
        <time>2011-04-16T15:21:59Z</time>
      </trkpt>
      <trkpt lat="49.02046" lon="1.08973">
        <ele>115.5</ele>
        <time>2011-04-16T15:22:05Z</time>
      </trkpt>
      <trkpt lat="49.02058" lon="1.09026">
        <ele>115.01</ele>
        <time>2011-04-16T15:22:14Z</time>
      </trkpt>
      <trkpt lat="49.02066" lon="1.09055">
        <ele>114.05</ele>
        <time>2011-04-16T15:22:19Z</time>
      </trkpt>
      <trkpt lat="49.02075" lon="1.09081">
        <ele>113.09</ele>
        <time>2011-04-16T15:22:23Z</time>
      </trkpt>
      <trkpt lat="49.02081" lon="1.09111">
        <ele>113.09</ele>
        <time>2011-04-16T15:22:27Z</time>
      </trkpt>
      <trkpt lat="49.02089" lon="1.09157">
        <ele>111.65</ele>
        <time>2011-04-16T15:22:31Z</time>
      </trkpt>
      <trkpt lat="49.02099" lon="1.09196">
        <ele>110.69</ele>
        <time>2011-04-16T15:22:35Z</time>
      </trkpt>
      <trkpt lat="49.02109" lon="1.09235">
        <ele>110.69</ele>
        <time>2011-04-16T15:22:41Z</time>
      </trkpt>
      <trkpt lat="49.021" lon="1.09249">
        <ele>111.17</ele>
        <time>2011-04-16T15:22:46Z</time>
      </trkpt>
      <trkpt lat="49.02076" lon="1.09266">
        <ele>114.53</ele>
        <time>2011-04-16T15:22:57Z</time>
      </trkpt>
      <trkpt lat="49.02069" lon="1.09269">
        <ele>115.01</ele>
        <time>2011-04-16T15:22:59Z</time>
      </trkpt>
      <trkpt lat="49.02046" lon="1.09288">
        <ele>115.98</ele>
        <time>2011-04-16T15:23:09Z</time>
      </trkpt>
      <trkpt lat="49.02043" lon="1.09294">
        <ele>115.5</ele>
        <time>2011-04-16T15:23:11Z</time>
      </trkpt>
      <trkpt lat="49.02041" lon="1.09297">
        <ele>116.46</ele>
        <time>2011-04-16T15:23:13Z</time>
      </trkpt>
      <trkpt lat="49.02018" lon="1.09282">
        <ele>115.98</ele>
        <time>2011-04-16T15:23:25Z</time>
      </trkpt>
      <trkpt lat="49.02009" lon="1.09269">
        <ele>116.46</ele>
        <time>2011-04-16T15:23:30Z</time>
      </trkpt>
      <trkpt lat="49.01991" lon="1.09217">
        <ele>116.46</ele>
        <time>2011-04-16T15:23:42Z</time>
      </trkpt>
      <trkpt lat="49.01986" lon="1.09181">
        <ele>116.46</ele>
        <time>2011-04-16T15:23:48Z</time>
      </trkpt>
      <trkpt lat="49.01979" lon="1.0915">
        <ele>116.94</ele>
        <time>2011-04-16T15:23:53Z</time>
      </trkpt>
      <trkpt lat="49.01974" lon="1.09134">
        <ele>117.42</ele>
        <time>2011-04-16T15:23:56Z</time>
      </trkpt>
      <trkpt lat="49.01954" lon="1.09126">
        <ele>118.38</ele>
        <time>2011-04-16T15:24:02Z</time>
      </trkpt>
      <trkpt lat="49.01925" lon="1.09135">
        <ele>118.86</ele>
        <time>2011-04-16T15:24:09Z</time>
      </trkpt>
      <trkpt lat="49.01912" lon="1.09133">
        <ele>118.86</ele>
        <time>2011-04-16T15:24:12Z</time>
      </trkpt>
      <trkpt lat="49.01884" lon="1.0912">
        <ele>118.86</ele>
        <time>2011-04-16T15:24:18Z</time>
      </trkpt>
      <trkpt lat="49.01871" lon="1.09112">
        <ele>119.82</ele>
        <time>2011-04-16T15:24:21Z</time>
      </trkpt>
      <trkpt lat="49.01794" lon="1.09049">
        <ele>121.26</ele>
        <time>2011-04-16T15:24:40Z</time>
      </trkpt>
      <trkpt lat="49.01738" lon="1.09007">
        <ele>121.26</ele>
        <time>2011-04-16T15:24:52Z</time>
      </trkpt>
      <trkpt lat="49.01724" lon="1.0899">
        <ele>120.78</ele>
        <time>2011-04-16T15:24:56Z</time>
      </trkpt>
      <trkpt lat="49.01708" lon="1.08959">
        <ele>120.78</ele>
        <time>2011-04-16T15:25:03Z</time>
      </trkpt>
      <trkpt lat="49.01691" lon="1.08926">
        <ele>121.26</ele>
        <time>2011-04-16T15:25:12Z</time>
      </trkpt>
      <trkpt lat="49.01686" lon="1.08926">
        <ele>121.26</ele>
        <time>2011-04-16T15:25:16Z</time>
      </trkpt>
      <trkpt lat="49.01689" lon="1.08929">
        <ele>120.3</ele>
        <time>2011-04-16T15:25:18Z</time>
      </trkpt>
      <trkpt lat="49.01693" lon="1.08932">
        <ele>120.78</ele>
        <time>2011-04-16T15:25:22Z</time>
      </trkpt>
      <trkpt lat="49.01688" lon="1.08923">
        <ele>120.78</ele>
        <time>2011-04-16T15:25:28Z</time>
      </trkpt>
      <trkpt lat="49.01694" lon="1.08933">
        <ele>120.78</ele>
        <time>2011-04-16T15:25:33Z</time>
      </trkpt>
      <trkpt lat="49.01703" lon="1.0895">
        <ele>120.78</ele>
        <time>2011-04-16T15:25:39Z</time>
      </trkpt>
      <trkpt lat="49.01704" lon="1.08954">
        <ele>121.26</ele>
        <time>2011-04-16T15:25:41Z</time>
      </trkpt>
      <trkpt lat="49.017" lon="1.08943">
        <ele>121.26</ele>
        <time>2011-04-16T15:25:45Z</time>
      </trkpt>
      <trkpt lat="49.01689" lon="1.08928">
        <ele>120.78</ele>
        <time>2011-04-16T15:25:49Z</time>
      </trkpt>
      <trkpt lat="49.01682" lon="1.08923">
        <ele>120.3</ele>
        <time>2011-04-16T15:25:51Z</time>
      </trkpt>
      <trkpt lat="49.01632" lon="1.08911">
        <ele>121.74</ele>
        <time>2011-04-16T15:26:02Z</time>
      </trkpt>
      <trkpt lat="49.0162" lon="1.08904">
        <ele>120.3</ele>
        <time>2011-04-16T15:26:05Z</time>
      </trkpt>
      <trkpt lat="49.01606" lon="1.08917">
        <ele>120.3</ele>
        <time>2011-04-16T15:26:10Z</time>
      </trkpt>
      <trkpt lat="49.01614" lon="1.09089">
        <ele>120.78</ele>
        <time>2011-04-16T15:26:31Z</time>
      </trkpt>
      <trkpt lat="49.01628" lon="1.09281">
        <ele>122.22</ele>
        <time>2011-04-16T15:26:57Z</time>
      </trkpt>
      <trkpt lat="49.01629" lon="1.09291">
        <ele>122.71</ele>
        <time>2011-04-16T15:26:59Z</time>
      </trkpt>
      <trkpt lat="49.01619" lon="1.09299">
        <ele>122.71</ele>
        <time>2011-04-16T15:27:03Z</time>
      </trkpt>
      <trkpt lat="49.01598" lon="1.09297">
        <ele>123.19</ele>
        <time>2011-04-16T15:27:08Z</time>
      </trkpt>
      <trkpt lat="49.01546" lon="1.09297">
        <ele>121.74</ele>
        <time>2011-04-16T15:27:20Z</time>
      </trkpt>
      <trkpt lat="49.01524" lon="1.09291">
        <ele>120.78</ele>
        <time>2011-04-16T15:27:26Z</time>
      </trkpt>
      <trkpt lat="49.01475" lon="1.09218">
        <ele>119.34</ele>
        <time>2011-04-16T15:27:37Z</time>
      </trkpt>
      <trkpt lat="49.01452" lon="1.09212">
        <ele>118.86</ele>
        <time>2011-04-16T15:27:41Z</time>
      </trkpt>
      <trkpt lat="49.01435" lon="1.09227">
        <ele>118.86</ele>
        <time>2011-04-16T15:27:44Z</time>
      </trkpt>
      <trkpt lat="49.01423" lon="1.09232">
        <ele>119.34</ele>
        <time>2011-04-16T15:27:46Z</time>
      </trkpt>
      <trkpt lat="49.01404" lon="1.09211">
        <ele>117.42</ele>
        <time>2011-04-16T15:27:51Z</time>
      </trkpt>
      <trkpt lat="49.01405" lon="1.09188">
        <ele>117.42</ele>
        <time>2011-04-16T15:27:54Z</time>
      </trkpt>
      <trkpt lat="49.01402" lon="1.09167">
        <ele>116.94</ele>
        <time>2011-04-16T15:27:57Z</time>
      </trkpt>
      <trkpt lat="49.01381" lon="1.09143">
        <ele>115.5</ele>
        <time>2011-04-16T15:28:02Z</time>
      </trkpt>
      <trkpt lat="49.01339" lon="1.09128">
        <ele>115.01</ele>
        <time>2011-04-16T15:28:09Z</time>
      </trkpt>
      <trkpt lat="49.01268" lon="1.09117">
        <ele>118.38</ele>
        <time>2011-04-16T15:28:23Z</time>
      </trkpt>
      <trkpt lat="49.01216" lon="1.09123">
        <ele>119.34</ele>
        <time>2011-04-16T15:28:37Z</time>
      </trkpt>
      <trkpt lat="49.01168" lon="1.09147">
        <ele>123.19</ele>
        <time>2011-04-16T15:28:53Z</time>
      </trkpt>
      <trkpt lat="49.01124" lon="1.09168">
        <ele>125.59</ele>
        <time>2011-04-16T15:29:08Z</time>
      </trkpt>
      <trkpt lat="49.01098" lon="1.09134">
        <ele>127.99</ele>
        <time>2011-04-16T15:29:20Z</time>
      </trkpt>
      <trkpt lat="49.01105" lon="1.09049">
        <ele>125.11</ele>
        <time>2011-04-16T15:29:32Z</time>
      </trkpt>
      <trkpt lat="49.01108" lon="1.09029">
        <ele>124.63</ele>
        <time>2011-04-16T15:29:34Z</time>
      </trkpt>
      <trkpt lat="49.01094" lon="1.08973">
        <ele>124.63</ele>
        <time>2011-04-16T15:29:40Z</time>
      </trkpt>
      <trkpt lat="49.01015" lon="1.08841">
        <ele>124.63</ele>
        <time>2011-04-16T15:29:58Z</time>
      </trkpt>
      <trkpt lat="49.01" lon="1.08824">
        <ele>124.63</ele>
        <time>2011-04-16T15:30:01Z</time>
      </trkpt>
      <trkpt lat="49.00976" lon="1.08808">
        <ele>125.11</ele>
        <time>2011-04-16T15:30:08Z</time>
      </trkpt>
      <trkpt lat="49.00962" lon="1.0879">
        <ele>125.11</ele>
        <time>2011-04-16T15:30:12Z</time>
      </trkpt>
      <trkpt lat="49.00944" lon="1.08784">
        <ele>126.07</ele>
        <time>2011-04-16T15:30:16Z</time>
      </trkpt>
      <trkpt lat="49.0093" lon="1.08788">
        <ele>126.07</ele>
        <time>2011-04-16T15:30:19Z</time>
      </trkpt>
      <trkpt lat="49.00895" lon="1.08792">
        <ele>126.07</ele>
        <time>2011-04-16T15:30:26Z</time>
      </trkpt>
      <trkpt lat="49.0088" lon="1.08793">
        <ele>126.55</ele>
        <time>2011-04-16T15:30:29Z</time>
      </trkpt>
      <trkpt lat="49.00854" lon="1.08795">
        <ele>126.07</ele>
        <time>2011-04-16T15:30:34Z</time>
      </trkpt>
      <trkpt lat="49.00832" lon="1.08796">
        <ele>126.55</ele>
        <time>2011-04-16T15:30:39Z</time>
      </trkpt>
      <trkpt lat="49.00822" lon="1.08748">
        <ele>126.55</ele>
        <time>2011-04-16T15:30:49Z</time>
      </trkpt>
      <trkpt lat="49.00816" lon="1.08738">
        <ele>126.55</ele>
        <time>2011-04-16T15:30:55Z</time>
      </trkpt>
      <trkpt lat="49.00814" lon="1.08737">
        <ele>126.07</ele>
        <time>2011-04-16T15:31:07Z</time>
      </trkpt>
      <trkpt lat="49.00802" lon="1.08742">
        <ele>126.07</ele>
        <time>2011-04-16T15:31:13Z</time>
      </trkpt>
      <trkpt lat="49.00761" lon="1.08764">
        <ele>125.59</ele>
        <time>2011-04-16T15:31:24Z</time>
      </trkpt>
      <trkpt lat="49.00752" lon="1.08765">
        <ele>126.55</ele>
        <time>2011-04-16T15:31:26Z</time>
      </trkpt>
      <trkpt lat="49.00737" lon="1.0877">
        <ele>125.11</ele>
        <time>2011-04-16T15:31:29Z</time>
      </trkpt>
      <trkpt lat="49.00638" lon="1.08833">
        <ele>125.11</ele>
        <time>2011-04-16T15:31:45Z</time>
      </trkpt>
      <trkpt lat="49.00479" lon="1.08925">
        <ele>127.03</ele>
        <time>2011-04-16T15:32:07Z</time>
      </trkpt>
      <trkpt lat="49.00354" lon="1.09001">
        <ele>123.67</ele>
        <time>2011-04-16T15:32:25Z</time>
      </trkpt>
      <trkpt lat="49.0031" lon="1.09027">
        <ele>121.74</ele>
        <time>2011-04-16T15:32:32Z</time>
      </trkpt>
      <trkpt lat="49.0029" lon="1.09032">
        <ele>121.26</ele>
        <time>2011-04-16T15:32:37Z</time>
      </trkpt>
      <trkpt lat="49.00267" lon="1.09057">
        <ele>117.42</ele>
        <time>2011-04-16T15:32:42Z</time>
      </trkpt>
      <trkpt lat="49.00263" lon="1.09065">
        <ele>117.42</ele>
        <time>2011-04-16T15:32:43Z</time>
      </trkpt>
      <trkpt lat="49.00236" lon="1.09071">
        <ele>117.9</ele>
        <time>2011-04-16T15:32:49Z</time>
      </trkpt>
      <trkpt lat="49.00222" lon="1.0904">
        <ele>116.94</ele>
        <time>2011-04-16T15:32:53Z</time>
      </trkpt>
      <trkpt lat="49.0021" lon="1.0901">
        <ele>117.42</ele>
        <time>2011-04-16T15:32:57Z</time>
      </trkpt>
      <trkpt lat="49.00216" lon="1.08945">
        <ele>118.86</ele>
        <time>2011-04-16T15:33:06Z</time>
      </trkpt>
      <trkpt lat="49.00227" lon="1.08945">
        <ele>118.86</ele>
        <time>2011-04-16T15:33:08Z</time>
      </trkpt>
      <trkpt lat="49.00238" lon="1.08946">
        <ele>118.38</ele>
        <time>2011-04-16T15:33:10Z</time>
      </trkpt>
      <trkpt lat="49.00248" lon="1.08924">
        <ele>118.86</ele>
        <time>2011-04-16T15:33:18Z</time>
      </trkpt>
      <trkpt lat="49.00247" lon="1.08924">
        <ele>118.86</ele>
        <time>2011-04-16T15:33:19Z</time>
      </trkpt>
    </trkseg>
  </trk>
</gpx>